<?xml version="1.0" encoding="UTF-8" standalone="no" ?>
<gpx xmlns="http://www.topografix.com/GPX/1/1" xmlns:xsi="http://www.w3.org/2001/XMLSchema-instance" xsi:schemaLocation="http://www.topografix.com/GPX/1/1 http://www.topografix.com/GPX/1/1/gpx.xsd" version="1.1" creator="VisuGPX - https://www.visugpx.com">
  <metadata>
    <name>[10/04/2022] Gorges de Trevans - Trigance [24km-1050d]</name>
    <desc><![CDATA[avec Jean / JeanPhi]]></desc>
  </metadata>
  <wpt lat="43.75552" lon="6.43349">
    <ele>783.1</ele>
    <type><![CDATA[Point de départ]]></type>
  </wpt>
  <wpt lat="43.76048" lon="6.44225">
    <ele>772</ele>
    <desc><![CDATA[<p><br /><h3>Nom: Segment: 1</h3><br />Heure de départ: 09:27 10 avr. 2022<br/>Heure d'arrivée: 14:27 10 avr. 2022<br/>Distance: 21,3km (05:00)<br/>Temps déplacement: 02:16<br/>Vitesse moyenne: 4,25 km/h<br/>Vitesse moyenne mouv.: 9,34 km/h<br/>Vitesse Max.: 42,6 km/h<br/>Altitude minimale: 570 m<br/>Altitude maximale: 1102 m<br/>Vitesse de montée: 2043 m/h<br/>Vitesse de descente: 2211,8 m/h<br/>Gain d'altitude: 964 m<br/>Perte d'altitude: 984 m<br/>Temps de montée: 00:28<br/>Temps de descente: 00:26<br/></p>]]></desc>
    <type><![CDATA[Point d'arrivée]]></type>
  </wpt>
  <trk>
    <name><![CDATA[2022-04-10 09:27:24]]></name>
    <desc><![CDATA[<p>Heure de départ: 09:27 10 avr. 2022<br/>Heure d'arrivée: 14:27 10 avr. 2022<br/>Distance: 21,3 km (05:00)<br/>Temps déplacement: 02:16<br/>Vitesse moyenne: 4,25 km/h<br/>Vitesse moyenne mouv.: 9,34 km/h<br/>Vitesse Max.: 42,6 km/h<br/>Altitude minimale: 570 m<br/>Altitude maximale: 1102 m<br/>Vitesse de montée: 2043 m/h<br/>Vitesse de descente: 2211,8 m/h<br/>Gain d'altitude: 964 m<br/>Perte d'altitude: 984 m<br/>Temps de montée: 00:28<br/>Temps de descente: 00:26<br/></p><hr align="center" width="480" style="height: 2px; width: 517px"/>]]></desc>
    <extensions>
      <line xmlns="http://www.topografix.com/GPX/gpx_style/0/2">
        <color>0000FF</color>
        <width>4</width>
      </line>
    </extensions>
    <trkseg>
      <trkpt lat="43.75552" lon="6.43349">
        <ele>783.1</ele>
        <time>2022-04-10T07:27:25.000Z</time>
      </trkpt>
      <trkpt lat="43.75549" lon="6.43324">
        <ele>738.26</ele>
        <time>2022-04-10T07:27:34.000Z</time>
      </trkpt>
      <trkpt lat="43.75544" lon="6.43299">
        <ele>739.02</ele>
        <time>2022-04-10T07:27:43.000Z</time>
      </trkpt>
      <trkpt lat="43.75544" lon="6.43274">
        <ele>739.74</ele>
        <time>2022-04-10T07:27:54.000Z</time>
      </trkpt>
      <trkpt lat="43.75545" lon="6.43248">
        <ele>740.66</ele>
        <time>2022-04-10T07:28:05.000Z</time>
      </trkpt>
      <trkpt lat="43.75531" lon="6.43229">
        <ele>743.28</ele>
        <time>2022-04-10T07:28:18.000Z</time>
      </trkpt>
      <trkpt lat="43.75534" lon="6.43204">
        <ele>748.06</ele>
        <time>2022-04-10T07:28:35.000Z</time>
      </trkpt>
      <trkpt lat="43.75536" lon="6.43178">
        <ele>751.4</ele>
        <time>2022-04-10T07:28:49.000Z</time>
      </trkpt>
      <trkpt lat="43.75536" lon="6.43153">
        <ele>751.79</ele>
        <time>2022-04-10T07:28:59.000Z</time>
      </trkpt>
      <trkpt lat="43.75543" lon="6.43128">
        <ele>755.91</ele>
        <time>2022-04-10T07:29:13.000Z</time>
      </trkpt>
      <trkpt lat="43.75533" lon="6.43106">
        <ele>759.26</ele>
        <time>2022-04-10T07:29:28.000Z</time>
      </trkpt>
      <trkpt lat="43.75519" lon="6.43089">
        <ele>763.27</ele>
        <time>2022-04-10T07:29:41.000Z</time>
      </trkpt>
      <trkpt lat="43.75506" lon="6.43071">
        <ele>765.98</ele>
        <time>2022-04-10T07:29:54.000Z</time>
      </trkpt>
      <trkpt lat="43.75496" lon="6.43051">
        <ele>770.47</ele>
        <time>2022-04-10T07:30:06.000Z</time>
      </trkpt>
      <trkpt lat="43.75486" lon="6.43027">
        <ele>775.22</ele>
        <time>2022-04-10T07:30:18.000Z</time>
      </trkpt>
      <trkpt lat="43.75471" lon="6.43012">
        <ele>778.72</ele>
        <time>2022-04-10T07:30:30.000Z</time>
      </trkpt>
      <trkpt lat="43.75455" lon="6.42999">
        <ele>783.27</ele>
        <time>2022-04-10T07:30:43.000Z</time>
      </trkpt>
      <trkpt lat="43.75444" lon="6.42978">
        <ele>785.59</ele>
        <time>2022-04-10T07:30:55.000Z</time>
      </trkpt>
      <trkpt lat="43.75431" lon="6.4296">
        <ele>787.96</ele>
        <time>2022-04-10T07:31:10.000Z</time>
      </trkpt>
      <trkpt lat="43.75413" lon="6.42952">
        <ele>789.83</ele>
        <time>2022-04-10T07:31:26.000Z</time>
      </trkpt>
      <trkpt lat="43.75397" lon="6.42937">
        <ele>792.17</ele>
        <time>2022-04-10T07:31:42.000Z</time>
      </trkpt>
      <trkpt lat="43.75381" lon="6.42923">
        <ele>795.65</ele>
        <time>2022-04-10T07:31:54.000Z</time>
      </trkpt>
      <trkpt lat="43.75367" lon="6.42906">
        <ele>797.72</ele>
        <time>2022-04-10T07:32:06.000Z</time>
      </trkpt>
      <trkpt lat="43.75358" lon="6.42882">
        <ele>800.03</ele>
        <time>2022-04-10T07:32:18.000Z</time>
      </trkpt>
      <trkpt lat="43.75353" lon="6.42856">
        <ele>803.56</ele>
        <time>2022-04-10T07:32:31.000Z</time>
      </trkpt>
      <trkpt lat="43.75343" lon="6.42835">
        <ele>809.16</ele>
        <time>2022-04-10T07:32:43.000Z</time>
      </trkpt>
      <trkpt lat="43.7533" lon="6.42817">
        <ele>811.68</ele>
        <time>2022-04-10T07:32:58.000Z</time>
      </trkpt>
      <trkpt lat="43.75321" lon="6.42794">
        <ele>817.2</ele>
        <time>2022-04-10T07:33:12.000Z</time>
      </trkpt>
      <trkpt lat="43.75306" lon="6.42777">
        <ele>820.25</ele>
        <time>2022-04-10T07:33:28.000Z</time>
      </trkpt>
      <trkpt lat="43.75295" lon="6.42755">
        <ele>823.1</ele>
        <time>2022-04-10T07:33:42.000Z</time>
      </trkpt>
      <trkpt lat="43.75286" lon="6.42732">
        <ele>826.78</ele>
        <time>2022-04-10T07:33:55.000Z</time>
      </trkpt>
      <trkpt lat="43.7528" lon="6.42708">
        <ele>829.74</ele>
        <time>2022-04-10T07:34:07.000Z</time>
      </trkpt>
      <trkpt lat="43.75276" lon="6.42682">
        <ele>833.73</ele>
        <time>2022-04-10T07:34:21.000Z</time>
      </trkpt>
      <trkpt lat="43.75274" lon="6.42657">
        <ele>837.44</ele>
        <time>2022-04-10T07:34:33.000Z</time>
      </trkpt>
      <trkpt lat="43.75272" lon="6.42631">
        <ele>840.31</ele>
        <time>2022-04-10T07:34:47.000Z</time>
      </trkpt>
      <trkpt lat="43.75271" lon="6.42606">
        <ele>846.07</ele>
        <time>2022-04-10T07:41:14.000Z</time>
      </trkpt>
      <trkpt lat="43.7528" lon="6.42583">
        <ele>847.6</ele>
        <time>2022-04-10T07:41:26.000Z</time>
      </trkpt>
      <trkpt lat="43.75294" lon="6.42565">
        <ele>850.63</ele>
        <time>2022-04-10T07:41:38.000Z</time>
      </trkpt>
      <trkpt lat="43.75303" lon="6.42542">
        <ele>853.24</ele>
        <time>2022-04-10T07:41:51.000Z</time>
      </trkpt>
      <trkpt lat="43.75312" lon="6.4252">
        <ele>856.78</ele>
        <time>2022-04-10T07:42:05.000Z</time>
      </trkpt>
      <trkpt lat="43.75319" lon="6.42497">
        <ele>858.53</ele>
        <time>2022-04-10T07:42:17.000Z</time>
      </trkpt>
      <trkpt lat="43.75326" lon="6.42473">
        <ele>860.56</ele>
        <time>2022-04-10T07:42:29.000Z</time>
      </trkpt>
      <trkpt lat="43.75311" lon="6.42458">
        <ele>861.08</ele>
        <time>2022-04-10T07:42:45.000Z</time>
      </trkpt>
      <trkpt lat="43.75295" lon="6.42446">
        <ele>860.91</ele>
        <time>2022-04-10T07:42:58.000Z</time>
      </trkpt>
      <trkpt lat="43.75277" lon="6.4244">
        <ele>863.59</ele>
        <time>2022-04-10T07:43:11.000Z</time>
      </trkpt>
      <trkpt lat="43.75259" lon="6.42433">
        <ele>864.86</ele>
        <time>2022-04-10T07:43:24.000Z</time>
      </trkpt>
      <trkpt lat="43.75242" lon="6.42424">
        <ele>865.66</ele>
        <time>2022-04-10T07:43:36.000Z</time>
      </trkpt>
      <trkpt lat="43.75225" lon="6.42413">
        <ele>867.8</ele>
        <time>2022-04-10T07:43:50.000Z</time>
      </trkpt>
      <trkpt lat="43.75209" lon="6.424">
        <ele>869.68</ele>
        <time>2022-04-10T07:44:01.000Z</time>
      </trkpt>
      <trkpt lat="43.75191" lon="6.42396">
        <ele>869.99</ele>
        <time>2022-04-10T07:44:54.000Z</time>
      </trkpt>
      <trkpt lat="43.75171" lon="6.42395">
        <ele>870.66</ele>
        <time>2022-04-10T07:45:02.000Z</time>
      </trkpt>
      <trkpt lat="43.75152" lon="6.42388">
        <ele>872.81</ele>
        <time>2022-04-10T07:45:11.000Z</time>
      </trkpt>
      <trkpt lat="43.75147" lon="6.42364">
        <ele>878.5</ele>
        <time>2022-04-10T07:45:31.000Z</time>
      </trkpt>
      <trkpt lat="43.75158" lon="6.42342">
        <ele>886.45</ele>
        <time>2022-04-10T07:45:46.000Z</time>
      </trkpt>
      <trkpt lat="43.75167" lon="6.42321">
        <ele>890.47</ele>
        <time>2022-04-10T07:45:59.000Z</time>
      </trkpt>
      <trkpt lat="43.75168" lon="6.42296">
        <ele>893.68</ele>
        <time>2022-04-10T07:46:14.000Z</time>
      </trkpt>
      <trkpt lat="43.75166" lon="6.4227">
        <ele>895.66</ele>
        <time>2022-04-10T07:46:29.000Z</time>
      </trkpt>
      <trkpt lat="43.75164" lon="6.42242">
        <ele>898.62</ele>
        <time>2022-04-10T07:46:49.000Z</time>
      </trkpt>
      <trkpt lat="43.75165" lon="6.42211">
        <ele>904.33</ele>
        <time>2022-04-10T07:47:14.000Z</time>
      </trkpt>
      <trkpt lat="43.75167" lon="6.42185">
        <ele>905.2</ele>
        <time>2022-04-10T07:47:27.000Z</time>
      </trkpt>
      <trkpt lat="43.75168" lon="6.4216">
        <ele>906.72</ele>
        <time>2022-04-10T07:47:38.000Z</time>
      </trkpt>
      <trkpt lat="43.7517" lon="6.42133">
        <ele>908.03</ele>
        <time>2022-04-10T07:47:48.000Z</time>
      </trkpt>
      <trkpt lat="43.75168" lon="6.42107">
        <ele>912.11</ele>
        <time>2022-04-10T07:48:00.000Z</time>
      </trkpt>
      <trkpt lat="43.75172" lon="6.42081">
        <ele>917.81</ele>
        <time>2022-04-10T07:48:13.000Z</time>
      </trkpt>
      <trkpt lat="43.75177" lon="6.42057">
        <ele>922.16</ele>
        <time>2022-04-10T07:48:25.000Z</time>
      </trkpt>
      <trkpt lat="43.75181" lon="6.4203">
        <ele>924.44</ele>
        <time>2022-04-10T07:48:39.000Z</time>
      </trkpt>
      <trkpt lat="43.75185" lon="6.42004">
        <ele>926.65</ele>
        <time>2022-04-10T07:48:51.000Z</time>
      </trkpt>
      <trkpt lat="43.75191" lon="6.41978">
        <ele>929.44</ele>
        <time>2022-04-10T07:49:05.000Z</time>
      </trkpt>
      <trkpt lat="43.75197" lon="6.41952">
        <ele>930.53</ele>
        <time>2022-04-10T07:49:17.000Z</time>
      </trkpt>
      <trkpt lat="43.75198" lon="6.41926">
        <ele>933.48</ele>
        <time>2022-04-10T07:49:28.000Z</time>
      </trkpt>
      <trkpt lat="43.75198" lon="6.41899">
        <ele>937.56</ele>
        <time>2022-04-10T07:49:42.000Z</time>
      </trkpt>
      <trkpt lat="43.75199" lon="6.41874">
        <ele>941.25</ele>
        <time>2022-04-10T07:49:55.000Z</time>
      </trkpt>
      <trkpt lat="43.75199" lon="6.41847">
        <ele>946.13</ele>
        <time>2022-04-10T07:50:09.000Z</time>
      </trkpt>
      <trkpt lat="43.75196" lon="6.41821">
        <ele>948.71</ele>
        <time>2022-04-10T07:50:22.000Z</time>
      </trkpt>
      <trkpt lat="43.75195" lon="6.41795">
        <ele>954.14</ele>
        <time>2022-04-10T07:50:34.000Z</time>
      </trkpt>
      <trkpt lat="43.75196" lon="6.41769">
        <ele>957.01</ele>
        <time>2022-04-10T07:50:49.000Z</time>
      </trkpt>
      <trkpt lat="43.75191" lon="6.41745">
        <ele>958.01</ele>
        <time>2022-04-10T07:53:37.000Z</time>
      </trkpt>
      <trkpt lat="43.75189" lon="6.41719">
        <ele>958.4</ele>
        <time>2022-04-10T07:53:45.000Z</time>
      </trkpt>
      <trkpt lat="43.75188" lon="6.4169">
        <ele>957.96</ele>
        <time>2022-04-10T07:53:51.000Z</time>
      </trkpt>
      <trkpt lat="43.75186" lon="6.41661">
        <ele>957.61</ele>
        <time>2022-04-10T07:53:57.000Z</time>
      </trkpt>
      <trkpt lat="43.75178" lon="6.41635">
        <ele>957.64</ele>
        <time>2022-04-10T07:54:03.000Z</time>
      </trkpt>
      <trkpt lat="43.75167" lon="6.41612">
        <ele>957.8</ele>
        <time>2022-04-10T07:54:09.000Z</time>
      </trkpt>
      <trkpt lat="43.75156" lon="6.41592">
        <ele>957.71</ele>
        <time>2022-04-10T07:54:15.000Z</time>
      </trkpt>
      <trkpt lat="43.75146" lon="6.41571">
        <ele>957.17</ele>
        <time>2022-04-10T07:54:21.000Z</time>
      </trkpt>
      <trkpt lat="43.75136" lon="6.41549">
        <ele>956.06</ele>
        <time>2022-04-10T07:54:27.000Z</time>
      </trkpt>
      <trkpt lat="43.75128" lon="6.41524">
        <ele>955.47</ele>
        <time>2022-04-10T07:54:33.000Z</time>
      </trkpt>
      <trkpt lat="43.75126" lon="6.41494">
        <ele>956.07</ele>
        <time>2022-04-10T07:54:39.000Z</time>
      </trkpt>
      <trkpt lat="43.75132" lon="6.41464">
        <ele>955.9</ele>
        <time>2022-04-10T07:54:44.000Z</time>
      </trkpt>
      <trkpt lat="43.75143" lon="6.41438">
        <ele>954.74</ele>
        <time>2022-04-10T07:54:48.000Z</time>
      </trkpt>
      <trkpt lat="43.75159" lon="6.41413">
        <ele>953.64</ele>
        <time>2022-04-10T07:54:52.000Z</time>
      </trkpt>
      <trkpt lat="43.75175" lon="6.41399">
        <ele>953.02</ele>
        <time>2022-04-10T07:54:55.000Z</time>
      </trkpt>
      <trkpt lat="43.75191" lon="6.41386">
        <ele>952.59</ele>
        <time>2022-04-10T07:54:58.000Z</time>
      </trkpt>
      <trkpt lat="43.75206" lon="6.41371">
        <ele>952.12</ele>
        <time>2022-04-10T07:55:01.000Z</time>
      </trkpt>
      <trkpt lat="43.75217" lon="6.41348">
        <ele>951.18</ele>
        <time>2022-04-10T07:55:04.000Z</time>
      </trkpt>
      <trkpt lat="43.7522" lon="6.4132">
        <ele>950.41</ele>
        <time>2022-04-10T07:55:07.000Z</time>
      </trkpt>
      <trkpt lat="43.7522" lon="6.41293">
        <ele>949.77</ele>
        <time>2022-04-10T07:55:10.000Z</time>
      </trkpt>
      <trkpt lat="43.75221" lon="6.41265">
        <ele>949.94</ele>
        <time>2022-04-10T07:55:14.000Z</time>
      </trkpt>
      <trkpt lat="43.75221" lon="6.4124">
        <ele>949.65</ele>
        <time>2022-04-10T07:55:18.000Z</time>
      </trkpt>
      <trkpt lat="43.7522" lon="6.41211">
        <ele>949.41</ele>
        <time>2022-04-10T07:55:23.000Z</time>
      </trkpt>
      <trkpt lat="43.75231" lon="6.41192">
        <ele>947.93</ele>
        <time>2022-04-10T07:55:30.000Z</time>
      </trkpt>
      <trkpt lat="43.75252" lon="6.41181">
        <ele>950.49</ele>
        <time>2022-04-10T07:56:43.000Z</time>
      </trkpt>
      <trkpt lat="43.75269" lon="6.41169">
        <ele>953.39</ele>
        <time>2022-04-10T07:56:55.000Z</time>
      </trkpt>
      <trkpt lat="43.75288" lon="6.41162">
        <ele>955.97</ele>
        <time>2022-04-10T07:57:05.000Z</time>
      </trkpt>
      <trkpt lat="43.75307" lon="6.41162">
        <ele>959.72</ele>
        <time>2022-04-10T07:57:17.000Z</time>
      </trkpt>
      <trkpt lat="43.75325" lon="6.41158">
        <ele>963.18</ele>
        <time>2022-04-10T07:57:31.000Z</time>
      </trkpt>
      <trkpt lat="43.75343" lon="6.4115">
        <ele>964.11</ele>
        <time>2022-04-10T07:57:44.000Z</time>
      </trkpt>
      <trkpt lat="43.75362" lon="6.41148">
        <ele>966.2</ele>
        <time>2022-04-10T07:57:57.000Z</time>
      </trkpt>
      <trkpt lat="43.7538" lon="6.41145">
        <ele>968.31</ele>
        <time>2022-04-10T07:58:09.000Z</time>
      </trkpt>
      <trkpt lat="43.75396" lon="6.41133">
        <ele>969.54</ele>
        <time>2022-04-10T07:58:21.000Z</time>
      </trkpt>
      <trkpt lat="43.7541" lon="6.41114">
        <ele>971.92</ele>
        <time>2022-04-10T07:58:33.000Z</time>
      </trkpt>
      <trkpt lat="43.75425" lon="6.41099">
        <ele>973.61</ele>
        <time>2022-04-10T07:58:45.000Z</time>
      </trkpt>
      <trkpt lat="43.75443" lon="6.41091">
        <ele>975.39</ele>
        <time>2022-04-10T07:58:57.000Z</time>
      </trkpt>
      <trkpt lat="43.75462" lon="6.41089">
        <ele>977.35</ele>
        <time>2022-04-10T07:59:08.000Z</time>
      </trkpt>
      <trkpt lat="43.75481" lon="6.41091">
        <ele>978.72</ele>
        <time>2022-04-10T07:59:19.000Z</time>
      </trkpt>
      <trkpt lat="43.755" lon="6.41096">
        <ele>979.99</ele>
        <time>2022-04-10T07:59:30.000Z</time>
      </trkpt>
      <trkpt lat="43.75515" lon="6.4108">
        <ele>981.71</ele>
        <time>2022-04-10T07:59:42.000Z</time>
      </trkpt>
      <trkpt lat="43.75527" lon="6.4106">
        <ele>982.97</ele>
        <time>2022-04-10T07:59:54.000Z</time>
      </trkpt>
      <trkpt lat="43.75538" lon="6.41039">
        <ele>985.46</ele>
        <time>2022-04-10T08:00:05.000Z</time>
      </trkpt>
      <trkpt lat="43.75548" lon="6.41018">
        <ele>987.57</ele>
        <time>2022-04-10T08:00:16.000Z</time>
      </trkpt>
      <trkpt lat="43.7556" lon="6.40997">
        <ele>990.01</ele>
        <time>2022-04-10T08:00:27.000Z</time>
      </trkpt>
      <trkpt lat="43.75575" lon="6.4098">
        <ele>990.88</ele>
        <time>2022-04-10T08:00:39.000Z</time>
      </trkpt>
      <trkpt lat="43.75589" lon="6.40963">
        <ele>991.66</ele>
        <time>2022-04-10T08:00:51.000Z</time>
      </trkpt>
      <trkpt lat="43.75603" lon="6.40944">
        <ele>992.16</ele>
        <time>2022-04-10T08:01:03.000Z</time>
      </trkpt>
      <trkpt lat="43.75618" lon="6.40928">
        <ele>993.18</ele>
        <time>2022-04-10T08:01:14.000Z</time>
      </trkpt>
      <trkpt lat="43.75632" lon="6.40912">
        <ele>995.6</ele>
        <time>2022-04-10T08:01:25.000Z</time>
      </trkpt>
      <trkpt lat="43.75646" lon="6.40893">
        <ele>997.15</ele>
        <time>2022-04-10T08:01:38.000Z</time>
      </trkpt>
      <trkpt lat="43.75658" lon="6.40872">
        <ele>998.7</ele>
        <time>2022-04-10T08:01:50.000Z</time>
      </trkpt>
      <trkpt lat="43.7567" lon="6.40852">
        <ele>999.26</ele>
        <time>2022-04-10T08:02:01.000Z</time>
      </trkpt>
      <trkpt lat="43.75681" lon="6.40833">
        <ele>1001.03</ele>
        <time>2022-04-10T08:02:12.000Z</time>
      </trkpt>
      <trkpt lat="43.75693" lon="6.40812">
        <ele>1002.41</ele>
        <time>2022-04-10T08:02:23.000Z</time>
      </trkpt>
      <trkpt lat="43.75703" lon="6.40789">
        <ele>1003.75</ele>
        <time>2022-04-10T08:02:35.000Z</time>
      </trkpt>
      <trkpt lat="43.75709" lon="6.40764">
        <ele>1006.12</ele>
        <time>2022-04-10T08:02:47.000Z</time>
      </trkpt>
      <trkpt lat="43.75715" lon="6.40739">
        <ele>1008.18</ele>
        <time>2022-04-10T08:02:59.000Z</time>
      </trkpt>
      <trkpt lat="43.75729" lon="6.40722">
        <ele>1010.98</ele>
        <time>2022-04-10T08:03:12.000Z</time>
      </trkpt>
      <trkpt lat="43.75746" lon="6.4071">
        <ele>1012.02</ele>
        <time>2022-04-10T08:03:25.000Z</time>
      </trkpt>
      <trkpt lat="43.75765" lon="6.40707">
        <ele>1015.19</ele>
        <time>2022-04-10T08:03:39.000Z</time>
      </trkpt>
      <trkpt lat="43.75783" lon="6.40702">
        <ele>1017.35</ele>
        <time>2022-04-10T08:03:52.000Z</time>
      </trkpt>
      <trkpt lat="43.75802" lon="6.40696">
        <ele>1018.99</ele>
        <time>2022-04-10T08:04:05.000Z</time>
      </trkpt>
      <trkpt lat="43.75821" lon="6.40701">
        <ele>1019.77</ele>
        <time>2022-04-10T08:04:17.000Z</time>
      </trkpt>
      <trkpt lat="43.75839" lon="6.40707">
        <ele>1022.25</ele>
        <time>2022-04-10T08:04:45.000Z</time>
      </trkpt>
      <trkpt lat="43.75858" lon="6.40714">
        <ele>1023.03</ele>
        <time>2022-04-10T08:04:54.000Z</time>
      </trkpt>
      <trkpt lat="43.75876" lon="6.4072">
        <ele>1023.19</ele>
        <time>2022-04-10T08:05:01.000Z</time>
      </trkpt>
      <trkpt lat="43.75896" lon="6.40726">
        <ele>1024.16</ele>
        <time>2022-04-10T08:05:08.000Z</time>
      </trkpt>
      <trkpt lat="43.75914" lon="6.40732">
        <ele>1026.16</ele>
        <time>2022-04-10T08:05:15.000Z</time>
      </trkpt>
      <trkpt lat="43.75934" lon="6.4074">
        <ele>1026.59</ele>
        <time>2022-04-10T08:05:22.000Z</time>
      </trkpt>
      <trkpt lat="43.75952" lon="6.40744">
        <ele>1026.68</ele>
        <time>2022-04-10T08:05:31.000Z</time>
      </trkpt>
      <trkpt lat="43.75971" lon="6.40742">
        <ele>1027.64</ele>
        <time>2022-04-10T08:05:41.000Z</time>
      </trkpt>
      <trkpt lat="43.75991" lon="6.40741">
        <ele>1029.03</ele>
        <time>2022-04-10T08:05:50.000Z</time>
      </trkpt>
      <trkpt lat="43.76009" lon="6.40739">
        <ele>1028.63</ele>
        <time>2022-04-10T08:05:57.000Z</time>
      </trkpt>
      <trkpt lat="43.76027" lon="6.40736">
        <ele>1028.45</ele>
        <time>2022-04-10T08:06:03.000Z</time>
      </trkpt>
      <trkpt lat="43.76048" lon="6.40733">
        <ele>1028.74</ele>
        <time>2022-04-10T08:06:10.000Z</time>
      </trkpt>
      <trkpt lat="43.76066" lon="6.40728">
        <ele>1029.72</ele>
        <time>2022-04-10T08:06:17.000Z</time>
      </trkpt>
      <trkpt lat="43.76084" lon="6.4072">
        <ele>1029.06</ele>
        <time>2022-04-10T08:06:24.000Z</time>
      </trkpt>
      <trkpt lat="43.76102" lon="6.40712">
        <ele>1029.56</ele>
        <time>2022-04-10T08:06:30.000Z</time>
      </trkpt>
      <trkpt lat="43.76121" lon="6.40704">
        <ele>1029.39</ele>
        <time>2022-04-10T08:06:36.000Z</time>
      </trkpt>
      <trkpt lat="43.7614" lon="6.40708">
        <ele>1030.13</ele>
        <time>2022-04-10T08:06:42.000Z</time>
      </trkpt>
      <trkpt lat="43.76157" lon="6.40722">
        <ele>1030.86</ele>
        <time>2022-04-10T08:06:49.000Z</time>
      </trkpt>
      <trkpt lat="43.76176" lon="6.40726">
        <ele>1031.59</ele>
        <time>2022-04-10T08:06:56.000Z</time>
      </trkpt>
      <trkpt lat="43.76194" lon="6.40733">
        <ele>1032.43</ele>
        <time>2022-04-10T08:07:03.000Z</time>
      </trkpt>
      <trkpt lat="43.76211" lon="6.40724">
        <ele>1032.97</ele>
        <time>2022-04-10T08:07:12.000Z</time>
      </trkpt>
      <trkpt lat="43.76227" lon="6.40711">
        <ele>1035.33</ele>
        <time>2022-04-10T08:07:23.000Z</time>
      </trkpt>
      <trkpt lat="43.76244" lon="6.40722">
        <ele>1038.36</ele>
        <time>2022-04-10T08:07:32.000Z</time>
      </trkpt>
      <trkpt lat="43.7626" lon="6.40737">
        <ele>1040.59</ele>
        <time>2022-04-10T08:07:42.000Z</time>
      </trkpt>
      <trkpt lat="43.76278" lon="6.40746">
        <ele>1042.42</ele>
        <time>2022-04-10T08:07:54.000Z</time>
      </trkpt>
      <trkpt lat="43.76297" lon="6.40747">
        <ele>1042.99</ele>
        <time>2022-04-10T08:08:07.000Z</time>
      </trkpt>
      <trkpt lat="43.76314" lon="6.40756">
        <ele>1045.13</ele>
        <time>2022-04-10T08:08:19.000Z</time>
      </trkpt>
      <trkpt lat="43.76332" lon="6.40758">
        <ele>1045.34</ele>
        <time>2022-04-10T08:08:29.000Z</time>
      </trkpt>
      <trkpt lat="43.7635" lon="6.40757">
        <ele>1048</ele>
        <time>2022-04-10T08:08:42.000Z</time>
      </trkpt>
      <trkpt lat="43.76367" lon="6.40745">
        <ele>1048.29</ele>
        <time>2022-04-10T08:08:55.000Z</time>
      </trkpt>
      <trkpt lat="43.76383" lon="6.40729">
        <ele>1049.84</ele>
        <time>2022-04-10T08:09:07.000Z</time>
      </trkpt>
      <trkpt lat="43.76401" lon="6.40723">
        <ele>1052.59</ele>
        <time>2022-04-10T08:09:18.000Z</time>
      </trkpt>
      <trkpt lat="43.7642" lon="6.40716">
        <ele>1054.05</ele>
        <time>2022-04-10T08:09:32.000Z</time>
      </trkpt>
      <trkpt lat="43.76438" lon="6.40713">
        <ele>1054.77</ele>
        <time>2022-04-10T08:09:43.000Z</time>
      </trkpt>
      <trkpt lat="43.76442" lon="6.40688">
        <ele>1053.86</ele>
        <time>2022-04-10T08:09:53.000Z</time>
      </trkpt>
      <trkpt lat="43.76452" lon="6.40667">
        <ele>1054.6</ele>
        <time>2022-04-10T08:10:02.000Z</time>
      </trkpt>
      <trkpt lat="43.7647" lon="6.40661">
        <ele>1054.92</ele>
        <time>2022-04-10T08:10:12.000Z</time>
      </trkpt>
      <trkpt lat="43.76488" lon="6.40663">
        <ele>1057.88</ele>
        <time>2022-04-10T08:10:23.000Z</time>
      </trkpt>
      <trkpt lat="43.76507" lon="6.40662">
        <ele>1059.91</ele>
        <time>2022-04-10T08:10:36.000Z</time>
      </trkpt>
      <trkpt lat="43.76523" lon="6.40648">
        <ele>1062.7</ele>
        <time>2022-04-10T08:10:50.000Z</time>
      </trkpt>
      <trkpt lat="43.76541" lon="6.40639">
        <ele>1063.95</ele>
        <time>2022-04-10T08:11:03.000Z</time>
      </trkpt>
      <trkpt lat="43.7656" lon="6.4064">
        <ele>1062.82</ele>
        <time>2022-04-10T08:11:16.000Z</time>
      </trkpt>
      <trkpt lat="43.76578" lon="6.4064">
        <ele>1061.45</ele>
        <time>2022-04-10T08:11:28.000Z</time>
      </trkpt>
      <trkpt lat="43.76597" lon="6.40635">
        <ele>1062.66</ele>
        <time>2022-04-10T08:11:37.000Z</time>
      </trkpt>
      <trkpt lat="43.76615" lon="6.40628">
        <ele>1064.09</ele>
        <time>2022-04-10T08:11:46.000Z</time>
      </trkpt>
      <trkpt lat="43.76634" lon="6.40625">
        <ele>1066.22</ele>
        <time>2022-04-10T08:11:55.000Z</time>
      </trkpt>
      <trkpt lat="43.76652" lon="6.40619">
        <ele>1068.98</ele>
        <time>2022-04-10T08:12:03.000Z</time>
      </trkpt>
      <trkpt lat="43.76671" lon="6.40611">
        <ele>1072.08</ele>
        <time>2022-04-10T08:12:13.000Z</time>
      </trkpt>
      <trkpt lat="43.7669" lon="6.40606">
        <ele>1074</ele>
        <time>2022-04-10T08:12:22.000Z</time>
      </trkpt>
      <trkpt lat="43.76708" lon="6.40601">
        <ele>1075.86</ele>
        <time>2022-04-10T08:12:32.000Z</time>
      </trkpt>
      <trkpt lat="43.76726" lon="6.40595">
        <ele>1076.92</ele>
        <time>2022-04-10T08:12:43.000Z</time>
      </trkpt>
      <trkpt lat="43.76744" lon="6.40589">
        <ele>1077.72</ele>
        <time>2022-04-10T08:12:54.000Z</time>
      </trkpt>
      <trkpt lat="43.76763" lon="6.40589">
        <ele>1079.22</ele>
        <time>2022-04-10T08:13:05.000Z</time>
      </trkpt>
      <trkpt lat="43.76782" lon="6.4059">
        <ele>1080.06</ele>
        <time>2022-04-10T08:13:16.000Z</time>
      </trkpt>
      <trkpt lat="43.768" lon="6.40592">
        <ele>1081.45</ele>
        <time>2022-04-10T08:13:27.000Z</time>
      </trkpt>
      <trkpt lat="43.76818" lon="6.40603">
        <ele>1082.94</ele>
        <time>2022-04-10T08:13:38.000Z</time>
      </trkpt>
      <trkpt lat="43.7683" lon="6.40623">
        <ele>1082.09</ele>
        <time>2022-04-10T08:13:48.000Z</time>
      </trkpt>
      <trkpt lat="43.76844" lon="6.40639">
        <ele>1081.56</ele>
        <time>2022-04-10T08:13:57.000Z</time>
      </trkpt>
      <trkpt lat="43.76861" lon="6.40652">
        <ele>1083</ele>
        <time>2022-04-10T08:14:08.000Z</time>
      </trkpt>
      <trkpt lat="43.76879" lon="6.40643">
        <ele>1087.39</ele>
        <time>2022-04-10T08:14:20.000Z</time>
      </trkpt>
      <trkpt lat="43.76896" lon="6.40634">
        <ele>1097.29</ele>
        <time>2022-04-10T08:14:34.000Z</time>
      </trkpt>
      <trkpt lat="43.76915" lon="6.40629">
        <ele>1099.52</ele>
        <time>2022-04-10T08:14:47.000Z</time>
      </trkpt>
      <trkpt lat="43.76936" lon="6.4062">
        <ele>1102.71</ele>
        <time>2022-04-10T08:15:12.000Z</time>
      </trkpt>
      <trkpt lat="43.76954" lon="6.40613">
        <ele>1103.72</ele>
        <time>2022-04-10T08:15:25.000Z</time>
      </trkpt>
      <trkpt lat="43.7697" lon="6.40598">
        <ele>1104.85</ele>
        <time>2022-04-10T08:15:38.000Z</time>
      </trkpt>
      <trkpt lat="43.76985" lon="6.40584">
        <ele>1104.53</ele>
        <time>2022-04-10T08:15:53.000Z</time>
      </trkpt>
      <trkpt lat="43.77003" lon="6.40579">
        <ele>1105.4</ele>
        <time>2022-04-10T08:16:06.000Z</time>
      </trkpt>
      <trkpt lat="43.77024" lon="6.4057">
        <ele>1103.41</ele>
        <time>2022-04-10T08:16:37.000Z</time>
      </trkpt>
      <trkpt lat="43.77042" lon="6.40559">
        <ele>1098.44</ele>
        <time>2022-04-10T08:26:38.000Z</time>
      </trkpt>
      <trkpt lat="43.77059" lon="6.40552">
        <ele>1098.49</ele>
        <time>2022-04-10T08:26:46.000Z</time>
      </trkpt>
      <trkpt lat="43.77078" lon="6.40544">
        <ele>1096.69</ele>
        <time>2022-04-10T08:26:51.000Z</time>
      </trkpt>
      <trkpt lat="43.77092" lon="6.40523">
        <ele>1092.91</ele>
        <time>2022-04-10T08:26:55.000Z</time>
      </trkpt>
      <trkpt lat="43.77107" lon="6.40507">
        <ele>1088.62</ele>
        <time>2022-04-10T08:26:58.000Z</time>
      </trkpt>
      <trkpt lat="43.77125" lon="6.40488">
        <ele>1083.84</ele>
        <time>2022-04-10T08:27:02.000Z</time>
      </trkpt>
      <trkpt lat="43.77141" lon="6.40475">
        <ele>1079.65</ele>
        <time>2022-04-10T08:27:06.000Z</time>
      </trkpt>
      <trkpt lat="43.77159" lon="6.40464">
        <ele>1076.86</ele>
        <time>2022-04-10T08:27:10.000Z</time>
      </trkpt>
      <trkpt lat="43.77176" lon="6.40453">
        <ele>1072.84</ele>
        <time>2022-04-10T08:27:14.000Z</time>
      </trkpt>
      <trkpt lat="43.77196" lon="6.4044">
        <ele>1068.77</ele>
        <time>2022-04-10T08:27:19.000Z</time>
      </trkpt>
      <trkpt lat="43.77214" lon="6.40425">
        <ele>1064.92</ele>
        <time>2022-04-10T08:27:24.000Z</time>
      </trkpt>
      <trkpt lat="43.77229" lon="6.40409">
        <ele>1062.57</ele>
        <time>2022-04-10T08:27:28.000Z</time>
      </trkpt>
      <trkpt lat="43.77246" lon="6.40393">
        <ele>1060.65</ele>
        <time>2022-04-10T08:27:33.000Z</time>
      </trkpt>
      <trkpt lat="43.77257" lon="6.40417">
        <ele>1060.64</ele>
        <time>2022-04-10T08:27:40.000Z</time>
      </trkpt>
      <trkpt lat="43.7725" lon="6.40449">
        <ele>1059.27</ele>
        <time>2022-04-10T08:27:44.000Z</time>
      </trkpt>
      <trkpt lat="43.77246" lon="6.40475">
        <ele>1059.24</ele>
        <time>2022-04-10T08:27:47.000Z</time>
      </trkpt>
      <trkpt lat="43.77248" lon="6.40502">
        <ele>1059.39</ele>
        <time>2022-04-10T08:27:51.000Z</time>
      </trkpt>
      <trkpt lat="43.77266" lon="6.40491">
        <ele>1058.49</ele>
        <time>2022-04-10T08:28:33.000Z</time>
      </trkpt>
      <trkpt lat="43.77273" lon="6.40462">
        <ele>1059.33</ele>
        <time>2022-04-10T08:28:38.000Z</time>
      </trkpt>
      <trkpt lat="43.77285" lon="6.40437">
        <ele>1059.51</ele>
        <time>2022-04-10T08:28:42.000Z</time>
      </trkpt>
      <trkpt lat="43.77299" lon="6.4042">
        <ele>1056.63</ele>
        <time>2022-04-10T08:28:45.000Z</time>
      </trkpt>
      <trkpt lat="43.77316" lon="6.404">
        <ele>1050.09</ele>
        <time>2022-04-10T08:28:49.000Z</time>
      </trkpt>
      <trkpt lat="43.77333" lon="6.40383">
        <ele>1039.15</ele>
        <time>2022-04-10T08:28:54.000Z</time>
      </trkpt>
      <trkpt lat="43.77348" lon="6.40359">
        <ele>1025.98</ele>
        <time>2022-04-10T08:28:59.000Z</time>
      </trkpt>
      <trkpt lat="43.7736" lon="6.40337">
        <ele>1021.06</ele>
        <time>2022-04-10T08:29:03.000Z</time>
      </trkpt>
      <trkpt lat="43.77365" lon="6.40312">
        <ele>1017.8</ele>
        <time>2022-04-10T08:29:08.000Z</time>
      </trkpt>
      <trkpt lat="43.77376" lon="6.4029">
        <ele>1014.38</ele>
        <time>2022-04-10T08:29:13.000Z</time>
      </trkpt>
      <trkpt lat="43.77388" lon="6.4027">
        <ele>1012.17</ele>
        <time>2022-04-10T08:29:19.000Z</time>
      </trkpt>
      <trkpt lat="43.77402" lon="6.40252">
        <ele>1009.58</ele>
        <time>2022-04-10T08:29:25.000Z</time>
      </trkpt>
      <trkpt lat="43.7742" lon="6.40263">
        <ele>1009.86</ele>
        <time>2022-04-10T08:30:20.000Z</time>
      </trkpt>
      <trkpt lat="43.77433" lon="6.40282">
        <ele>1009.13</ele>
        <time>2022-04-10T08:30:24.000Z</time>
      </trkpt>
      <trkpt lat="43.77453" lon="6.40284">
        <ele>1007.9</ele>
        <time>2022-04-10T08:30:30.000Z</time>
      </trkpt>
      <trkpt lat="43.77472" lon="6.40286">
        <ele>1003.62</ele>
        <time>2022-04-10T08:30:37.000Z</time>
      </trkpt>
      <trkpt lat="43.77492" lon="6.40277">
        <ele>1001.03</ele>
        <time>2022-04-10T08:30:42.000Z</time>
      </trkpt>
      <trkpt lat="43.7751" lon="6.40266">
        <ele>998.09</ele>
        <time>2022-04-10T08:30:46.000Z</time>
      </trkpt>
      <trkpt lat="43.77529" lon="6.4026">
        <ele>996.09</ele>
        <time>2022-04-10T08:30:50.000Z</time>
      </trkpt>
      <trkpt lat="43.77548" lon="6.40251">
        <ele>993.02</ele>
        <time>2022-04-10T08:30:54.000Z</time>
      </trkpt>
      <trkpt lat="43.77569" lon="6.40243">
        <ele>990.68</ele>
        <time>2022-04-10T08:30:58.000Z</time>
      </trkpt>
      <trkpt lat="43.77588" lon="6.40236">
        <ele>988.07</ele>
        <time>2022-04-10T08:31:01.000Z</time>
      </trkpt>
      <trkpt lat="43.77611" lon="6.40229">
        <ele>983.5</ele>
        <time>2022-04-10T08:31:05.000Z</time>
      </trkpt>
      <trkpt lat="43.77632" lon="6.40225">
        <ele>979.74</ele>
        <time>2022-04-10T08:31:09.000Z</time>
      </trkpt>
      <trkpt lat="43.77651" lon="6.40224">
        <ele>974.45</ele>
        <time>2022-04-10T08:31:13.000Z</time>
      </trkpt>
      <trkpt lat="43.77671" lon="6.40223">
        <ele>971.65</ele>
        <time>2022-04-10T08:31:17.000Z</time>
      </trkpt>
      <trkpt lat="43.7769" lon="6.40221">
        <ele>969.59</ele>
        <time>2022-04-10T08:31:22.000Z</time>
      </trkpt>
      <trkpt lat="43.7771" lon="6.40214">
        <ele>968.17</ele>
        <time>2022-04-10T08:31:27.000Z</time>
      </trkpt>
      <trkpt lat="43.77728" lon="6.40204">
        <ele>964.44</ele>
        <time>2022-04-10T08:31:34.000Z</time>
      </trkpt>
      <trkpt lat="43.77745" lon="6.40191">
        <ele>961.82</ele>
        <time>2022-04-10T08:33:07.000Z</time>
      </trkpt>
      <trkpt lat="43.77765" lon="6.40181">
        <ele>959.68</ele>
        <time>2022-04-10T08:33:12.000Z</time>
      </trkpt>
      <trkpt lat="43.77785" lon="6.40174">
        <ele>958.41</ele>
        <time>2022-04-10T08:33:17.000Z</time>
      </trkpt>
      <trkpt lat="43.77803" lon="6.40169">
        <ele>954.43</ele>
        <time>2022-04-10T08:33:23.000Z</time>
      </trkpt>
      <trkpt lat="43.77821" lon="6.40161">
        <ele>949.25</ele>
        <time>2022-04-10T08:33:31.000Z</time>
      </trkpt>
      <trkpt lat="43.77839" lon="6.40154">
        <ele>947.09</ele>
        <time>2022-04-10T08:33:38.000Z</time>
      </trkpt>
      <trkpt lat="43.77856" lon="6.40142">
        <ele>944.02</ele>
        <time>2022-04-10T08:33:44.000Z</time>
      </trkpt>
      <trkpt lat="43.77874" lon="6.40134">
        <ele>940.63</ele>
        <time>2022-04-10T08:33:53.000Z</time>
      </trkpt>
      <trkpt lat="43.77893" lon="6.40134">
        <ele>935.89</ele>
        <time>2022-04-10T08:34:01.000Z</time>
      </trkpt>
      <trkpt lat="43.77913" lon="6.40133">
        <ele>931.14</ele>
        <time>2022-04-10T08:34:09.000Z</time>
      </trkpt>
      <trkpt lat="43.77933" lon="6.4013">
        <ele>929.41</ele>
        <time>2022-04-10T08:34:16.000Z</time>
      </trkpt>
      <trkpt lat="43.77951" lon="6.40132">
        <ele>929.62</ele>
        <time>2022-04-10T08:34:24.000Z</time>
      </trkpt>
      <trkpt lat="43.77948" lon="6.401">
        <ele>923.91</ele>
        <time>2022-04-10T08:36:35.000Z</time>
      </trkpt>
      <trkpt lat="43.77964" lon="6.40088">
        <ele>923.31</ele>
        <time>2022-04-10T08:36:49.000Z</time>
      </trkpt>
      <trkpt lat="43.77987" lon="6.40085">
        <ele>922.57</ele>
        <time>2022-04-10T08:36:54.000Z</time>
      </trkpt>
      <trkpt lat="43.78004" lon="6.40074">
        <ele>919.69</ele>
        <time>2022-04-10T08:36:59.000Z</time>
      </trkpt>
      <trkpt lat="43.78022" lon="6.40068">
        <ele>914.14</ele>
        <time>2022-04-10T08:37:05.000Z</time>
      </trkpt>
      <trkpt lat="43.78041" lon="6.40063">
        <ele>906.66</ele>
        <time>2022-04-10T08:37:16.000Z</time>
      </trkpt>
      <trkpt lat="43.78059" lon="6.40063">
        <ele>904.24</ele>
        <time>2022-04-10T08:37:32.000Z</time>
      </trkpt>
      <trkpt lat="43.78081" lon="6.40055">
        <ele>903.66</ele>
        <time>2022-04-10T08:37:38.000Z</time>
      </trkpt>
      <trkpt lat="43.781" lon="6.40051">
        <ele>900.96</ele>
        <time>2022-04-10T08:37:43.000Z</time>
      </trkpt>
      <trkpt lat="43.78119" lon="6.40041">
        <ele>893.6</ele>
        <time>2022-04-10T08:38:03.000Z</time>
      </trkpt>
      <trkpt lat="43.78139" lon="6.40045">
        <ele>892.04</ele>
        <time>2022-04-10T08:38:24.000Z</time>
      </trkpt>
      <trkpt lat="43.78159" lon="6.40044">
        <ele>887.06</ele>
        <time>2022-04-10T08:38:31.000Z</time>
      </trkpt>
      <trkpt lat="43.78177" lon="6.40046">
        <ele>881.61</ele>
        <time>2022-04-10T08:38:36.000Z</time>
      </trkpt>
      <trkpt lat="43.78198" lon="6.40046">
        <ele>878.62</ele>
        <time>2022-04-10T08:38:43.000Z</time>
      </trkpt>
      <trkpt lat="43.78217" lon="6.40043">
        <ele>877.18</ele>
        <time>2022-04-10T08:40:39.000Z</time>
      </trkpt>
      <trkpt lat="43.78207" lon="6.40019">
        <ele>876</ele>
        <time>2022-04-10T08:41:30.000Z</time>
      </trkpt>
      <trkpt lat="43.7819" lon="6.40003">
        <ele>873.1</ele>
        <time>2022-04-10T08:41:37.000Z</time>
      </trkpt>
      <trkpt lat="43.78175" lon="6.39988">
        <ele>867.08</ele>
        <time>2022-04-10T08:41:43.000Z</time>
      </trkpt>
      <trkpt lat="43.78159" lon="6.39971">
        <ele>859.05</ele>
        <time>2022-04-10T08:41:49.000Z</time>
      </trkpt>
      <trkpt lat="43.78174" lon="6.39956">
        <ele>849.34</ele>
        <time>2022-04-10T08:42:08.000Z</time>
      </trkpt>
      <trkpt lat="43.78193" lon="6.39952">
        <ele>848.24</ele>
        <time>2022-04-10T08:42:15.000Z</time>
      </trkpt>
      <trkpt lat="43.78211" lon="6.39948">
        <ele>846.51</ele>
        <time>2022-04-10T08:42:20.000Z</time>
      </trkpt>
      <trkpt lat="43.78231" lon="6.39941">
        <ele>845.41</ele>
        <time>2022-04-10T08:42:27.000Z</time>
      </trkpt>
      <trkpt lat="43.78249" lon="6.39943">
        <ele>839.85</ele>
        <time>2022-04-10T08:42:33.000Z</time>
      </trkpt>
      <trkpt lat="43.78267" lon="6.39953">
        <ele>834.84</ele>
        <time>2022-04-10T08:42:40.000Z</time>
      </trkpt>
      <trkpt lat="43.78285" lon="6.39968">
        <ele>830.79</ele>
        <time>2022-04-10T08:42:45.000Z</time>
      </trkpt>
      <trkpt lat="43.78298" lon="6.39987">
        <ele>828.55</ele>
        <time>2022-04-10T08:42:50.000Z</time>
      </trkpt>
      <trkpt lat="43.78312" lon="6.40019">
        <ele>823.03</ele>
        <time>2022-04-10T08:43:11.000Z</time>
      </trkpt>
      <trkpt lat="43.78329" lon="6.40007">
        <ele>820.97</ele>
        <time>2022-04-10T08:43:30.000Z</time>
      </trkpt>
      <trkpt lat="43.78348" lon="6.40009">
        <ele>816.91</ele>
        <time>2022-04-10T08:43:42.000Z</time>
      </trkpt>
      <trkpt lat="43.78366" lon="6.40001">
        <ele>806.82</ele>
        <time>2022-04-10T08:43:57.000Z</time>
      </trkpt>
      <trkpt lat="43.78385" lon="6.40005">
        <ele>796.59</ele>
        <time>2022-04-10T08:44:12.000Z</time>
      </trkpt>
      <trkpt lat="43.78402" lon="6.40017">
        <ele>792.52</ele>
        <time>2022-04-10T08:44:21.000Z</time>
      </trkpt>
      <trkpt lat="43.78419" lon="6.40024">
        <ele>791.05</ele>
        <time>2022-04-10T08:44:29.000Z</time>
      </trkpt>
      <trkpt lat="43.78436" lon="6.40032">
        <ele>789.95</ele>
        <time>2022-04-10T08:44:35.000Z</time>
      </trkpt>
      <trkpt lat="43.78453" lon="6.40045">
        <ele>789.23</ele>
        <time>2022-04-10T08:44:39.000Z</time>
      </trkpt>
      <trkpt lat="43.78462" lon="6.40069">
        <ele>781.67</ele>
        <time>2022-04-10T08:44:47.000Z</time>
      </trkpt>
      <trkpt lat="43.78473" lon="6.40093">
        <ele>775.48</ele>
        <time>2022-04-10T08:44:53.000Z</time>
      </trkpt>
      <trkpt lat="43.7849" lon="6.40105">
        <ele>772.37</ele>
        <time>2022-04-10T08:44:59.000Z</time>
      </trkpt>
      <trkpt lat="43.78506" lon="6.40119">
        <ele>766.6</ele>
        <time>2022-04-10T08:45:04.000Z</time>
      </trkpt>
      <trkpt lat="43.78521" lon="6.40136">
        <ele>761.05</ele>
        <time>2022-04-10T08:45:09.000Z</time>
      </trkpt>
      <trkpt lat="43.78538" lon="6.4015">
        <ele>755.71</ele>
        <time>2022-04-10T08:45:19.000Z</time>
      </trkpt>
      <trkpt lat="43.78545" lon="6.40176">
        <ele>750.53</ele>
        <time>2022-04-10T08:45:27.000Z</time>
      </trkpt>
      <trkpt lat="43.7856" lon="6.40193">
        <ele>744.1</ele>
        <time>2022-04-10T08:45:50.000Z</time>
      </trkpt>
      <trkpt lat="43.78578" lon="6.40198">
        <ele>738.55</ele>
        <time>2022-04-10T08:46:20.000Z</time>
      </trkpt>
      <trkpt lat="43.78597" lon="6.40202">
        <ele>729.76</ele>
        <time>2022-04-10T08:46:38.000Z</time>
      </trkpt>
      <trkpt lat="43.78605" lon="6.40225">
        <ele>720.93</ele>
        <time>2022-04-10T08:46:53.000Z</time>
      </trkpt>
      <trkpt lat="43.78619" lon="6.40242">
        <ele>715.98</ele>
        <time>2022-04-10T08:47:16.000Z</time>
      </trkpt>
      <trkpt lat="43.78637" lon="6.40232">
        <ele>704.93</ele>
        <time>2022-04-10T08:47:46.000Z</time>
      </trkpt>
      <trkpt lat="43.78653" lon="6.40245">
        <ele>699.19</ele>
        <time>2022-04-10T08:47:58.000Z</time>
      </trkpt>
      <trkpt lat="43.78667" lon="6.40265">
        <ele>693.33</ele>
        <time>2022-04-10T08:48:12.000Z</time>
      </trkpt>
      <trkpt lat="43.78677" lon="6.40287">
        <ele>687.76</ele>
        <time>2022-04-10T08:48:19.000Z</time>
      </trkpt>
      <trkpt lat="43.78696" lon="6.40296">
        <ele>679.96</ele>
        <time>2022-04-10T08:48:31.000Z</time>
      </trkpt>
      <trkpt lat="43.78708" lon="6.40317">
        <ele>671.9</ele>
        <time>2022-04-10T08:48:42.000Z</time>
      </trkpt>
      <trkpt lat="43.78728" lon="6.40319">
        <ele>667.85</ele>
        <time>2022-04-10T08:49:23.000Z</time>
      </trkpt>
      <trkpt lat="43.78742" lon="6.40335">
        <ele>664.83</ele>
        <time>2022-04-10T08:49:34.000Z</time>
      </trkpt>
      <trkpt lat="43.7876" lon="6.40337">
        <ele>659.74</ele>
        <time>2022-04-10T08:49:44.000Z</time>
      </trkpt>
      <trkpt lat="43.7878" lon="6.40343">
        <ele>655.63</ele>
        <time>2022-04-10T08:49:50.000Z</time>
      </trkpt>
      <trkpt lat="43.78793" lon="6.40361">
        <ele>647.42</ele>
        <time>2022-04-10T08:49:57.000Z</time>
      </trkpt>
      <trkpt lat="43.78812" lon="6.40369">
        <ele>640.87</ele>
        <time>2022-04-10T08:50:04.000Z</time>
      </trkpt>
      <trkpt lat="43.78824" lon="6.40387">
        <ele>635.22</ele>
        <time>2022-04-10T08:50:13.000Z</time>
      </trkpt>
      <trkpt lat="43.78834" lon="6.40409">
        <ele>627</ele>
        <time>2022-04-10T08:50:22.000Z</time>
      </trkpt>
      <trkpt lat="43.78851" lon="6.40424">
        <ele>624.56</ele>
        <time>2022-04-10T08:50:28.000Z</time>
      </trkpt>
      <trkpt lat="43.78864" lon="6.40442">
        <ele>622.54</ele>
        <time>2022-04-10T08:50:36.000Z</time>
      </trkpt>
      <trkpt lat="43.78876" lon="6.40468">
        <ele>620.72</ele>
        <time>2022-04-10T08:57:20.000Z</time>
      </trkpt>
      <trkpt lat="43.78881" lon="6.40493">
        <ele>620.61</ele>
        <time>2022-04-10T08:57:33.000Z</time>
      </trkpt>
      <trkpt lat="43.78878" lon="6.4052">
        <ele>617.25</ele>
        <time>2022-04-10T08:57:42.000Z</time>
      </trkpt>
      <trkpt lat="43.7889" lon="6.4054">
        <ele>603.81</ele>
        <time>2022-04-10T08:58:17.000Z</time>
      </trkpt>
      <trkpt lat="43.789" lon="6.40564">
        <ele>598.12</ele>
        <time>2022-04-10T08:58:30.000Z</time>
      </trkpt>
      <trkpt lat="43.78905" lon="6.40589">
        <ele>594.83</ele>
        <time>2022-04-10T08:58:57.000Z</time>
      </trkpt>
      <trkpt lat="43.78917" lon="6.40611">
        <ele>595.66</ele>
        <time>2022-04-10T08:59:17.000Z</time>
      </trkpt>
      <trkpt lat="43.78925" lon="6.40635">
        <ele>593.92</ele>
        <time>2022-04-10T08:59:32.000Z</time>
      </trkpt>
      <trkpt lat="43.78913" lon="6.40655">
        <ele>591.29</ele>
        <time>2022-04-10T08:59:42.000Z</time>
      </trkpt>
      <trkpt lat="43.78912" lon="6.4068">
        <ele>589.05</ele>
        <time>2022-04-10T08:59:51.000Z</time>
      </trkpt>
      <trkpt lat="43.7892" lon="6.40707">
        <ele>585.14</ele>
        <time>2022-04-10T09:00:17.000Z</time>
      </trkpt>
      <trkpt lat="43.78943" lon="6.40722">
        <ele>585.43</ele>
        <time>2022-04-10T09:07:36.000Z</time>
      </trkpt>
      <trkpt lat="43.78959" lon="6.40733">
        <ele>587</ele>
        <time>2022-04-10T09:08:09.000Z</time>
      </trkpt>
      <trkpt lat="43.78975" lon="6.40745">
        <ele>585.66</ele>
        <time>2022-04-10T09:08:42.000Z</time>
      </trkpt>
      <trkpt lat="43.78994" lon="6.40753">
        <ele>583.79</ele>
        <time>2022-04-10T09:08:51.000Z</time>
      </trkpt>
      <trkpt lat="43.79013" lon="6.40761">
        <ele>578.54</ele>
        <time>2022-04-10T09:08:59.000Z</time>
      </trkpt>
      <trkpt lat="43.79032" lon="6.40765">
        <ele>574.42</ele>
        <time>2022-04-10T09:09:07.000Z</time>
      </trkpt>
      <trkpt lat="43.79044" lon="6.40739">
        <ele>568.27</ele>
        <time>2022-04-10T09:15:01.000Z</time>
      </trkpt>
      <trkpt lat="43.79044" lon="6.40714">
        <ele>567.92</ele>
        <time>2022-04-10T09:15:11.000Z</time>
      </trkpt>
      <trkpt lat="43.79028" lon="6.40698">
        <ele>569.65</ele>
        <time>2022-04-10T09:15:31.000Z</time>
      </trkpt>
      <trkpt lat="43.79014" lon="6.40683">
        <ele>569.79</ele>
        <time>2022-04-10T09:15:40.000Z</time>
      </trkpt>
      <trkpt lat="43.79003" lon="6.40662">
        <ele>569.37</ele>
        <time>2022-04-10T09:17:31.000Z</time>
      </trkpt>
      <trkpt lat="43.79004" lon="6.40636">
        <ele>570.55</ele>
        <time>2022-04-10T09:17:38.000Z</time>
      </trkpt>
      <trkpt lat="43.79015" lon="6.40613">
        <ele>572.18</ele>
        <time>2022-04-10T09:17:46.000Z</time>
      </trkpt>
      <trkpt lat="43.79029" lon="6.40595">
        <ele>573.56</ele>
        <time>2022-04-10T09:17:53.000Z</time>
      </trkpt>
      <trkpt lat="43.79046" lon="6.4057">
        <ele>577.57</ele>
        <time>2022-04-10T09:18:27.000Z</time>
      </trkpt>
      <trkpt lat="43.79059" lon="6.40551">
        <ele>582.55</ele>
        <time>2022-04-10T09:18:45.000Z</time>
      </trkpt>
      <trkpt lat="43.79073" lon="6.40533">
        <ele>586.29</ele>
        <time>2022-04-10T09:19:04.000Z</time>
      </trkpt>
      <trkpt lat="43.79088" lon="6.40517">
        <ele>586.9</ele>
        <time>2022-04-10T09:19:15.000Z</time>
      </trkpt>
      <trkpt lat="43.79106" lon="6.40497">
        <ele>591.46</ele>
        <time>2022-04-10T09:19:43.000Z</time>
      </trkpt>
      <trkpt lat="43.79127" lon="6.40492">
        <ele>593.12</ele>
        <time>2022-04-10T09:20:36.000Z</time>
      </trkpt>
      <trkpt lat="43.7914" lon="6.40472">
        <ele>595.23</ele>
        <time>2022-04-10T09:21:01.000Z</time>
      </trkpt>
      <trkpt lat="43.79147" lon="6.40445">
        <ele>598.22</ele>
        <time>2022-04-10T09:21:25.000Z</time>
      </trkpt>
      <trkpt lat="43.79154" lon="6.40415">
        <ele>603.76</ele>
        <time>2022-04-10T09:21:56.000Z</time>
      </trkpt>
      <trkpt lat="43.79169" lon="6.40393">
        <ele>611.83</ele>
        <time>2022-04-10T09:23:12.000Z</time>
      </trkpt>
      <trkpt lat="43.79189" lon="6.40415">
        <ele>627.55</ele>
        <time>2022-04-10T09:24:33.000Z</time>
      </trkpt>
      <trkpt lat="43.79195" lon="6.4039">
        <ele>631.38</ele>
        <time>2022-04-10T09:25:31.000Z</time>
      </trkpt>
      <trkpt lat="43.7921" lon="6.40366">
        <ele>640.5</ele>
        <time>2022-04-10T09:26:27.000Z</time>
      </trkpt>
      <trkpt lat="43.79225" lon="6.40343">
        <ele>643.96</ele>
        <time>2022-04-10T09:27:00.000Z</time>
      </trkpt>
      <trkpt lat="43.79246" lon="6.40339">
        <ele>645.91</ele>
        <time>2022-04-10T09:27:22.000Z</time>
      </trkpt>
      <trkpt lat="43.79252" lon="6.40313">
        <ele>648.08</ele>
        <time>2022-04-10T09:27:47.000Z</time>
      </trkpt>
      <trkpt lat="43.79256" lon="6.40288">
        <ele>649.87</ele>
        <time>2022-04-10T09:27:57.000Z</time>
      </trkpt>
      <trkpt lat="43.79261" lon="6.40264">
        <ele>653.12</ele>
        <time>2022-04-10T09:28:06.000Z</time>
      </trkpt>
      <trkpt lat="43.79266" lon="6.4024">
        <ele>656.66</ele>
        <time>2022-04-10T09:28:16.000Z</time>
      </trkpt>
      <trkpt lat="43.79283" lon="6.40229">
        <ele>660.14</ele>
        <time>2022-04-10T09:28:32.000Z</time>
      </trkpt>
      <trkpt lat="43.79296" lon="6.40252">
        <ele>667.52</ele>
        <time>2022-04-10T09:28:51.000Z</time>
      </trkpt>
      <trkpt lat="43.79301" lon="6.40278">
        <ele>670.29</ele>
        <time>2022-04-10T09:29:04.000Z</time>
      </trkpt>
      <trkpt lat="43.79311" lon="6.40256">
        <ele>670.72</ele>
        <time>2022-04-10T09:29:27.000Z</time>
      </trkpt>
      <trkpt lat="43.79321" lon="6.40234">
        <ele>664.86</ele>
        <time>2022-04-10T09:30:21.000Z</time>
      </trkpt>
      <trkpt lat="43.79337" lon="6.40223">
        <ele>663.68</ele>
        <time>2022-04-10T09:31:07.000Z</time>
      </trkpt>
      <trkpt lat="43.79355" lon="6.40229">
        <ele>666.23</ele>
        <time>2022-04-10T09:32:28.000Z</time>
      </trkpt>
      <trkpt lat="43.79366" lon="6.40206">
        <ele>674.36</ele>
        <time>2022-04-10T09:33:21.000Z</time>
      </trkpt>
      <trkpt lat="43.79381" lon="6.40185">
        <ele>677.12</ele>
        <time>2022-04-10T09:34:00.000Z</time>
      </trkpt>
      <trkpt lat="43.79393" lon="6.40159">
        <ele>680.24</ele>
        <time>2022-04-10T09:34:37.000Z</time>
      </trkpt>
      <trkpt lat="43.79407" lon="6.40137">
        <ele>685.7</ele>
        <time>2022-04-10T09:35:30.000Z</time>
      </trkpt>
      <trkpt lat="43.79428" lon="6.40131">
        <ele>689.59</ele>
        <time>2022-04-10T09:35:53.000Z</time>
      </trkpt>
      <trkpt lat="43.79444" lon="6.40119">
        <ele>693.15</ele>
        <time>2022-04-10T09:36:08.000Z</time>
      </trkpt>
      <trkpt lat="43.79446" lon="6.4009">
        <ele>700.14</ele>
        <time>2022-04-10T09:36:37.000Z</time>
      </trkpt>
      <trkpt lat="43.79448" lon="6.40063">
        <ele>702.72</ele>
        <time>2022-04-10T09:37:24.000Z</time>
      </trkpt>
      <trkpt lat="43.79442" lon="6.40039">
        <ele>707.21</ele>
        <time>2022-04-10T09:37:51.000Z</time>
      </trkpt>
      <trkpt lat="43.79439" lon="6.40012">
        <ele>711.67</ele>
        <time>2022-04-10T09:38:02.000Z</time>
      </trkpt>
      <trkpt lat="43.79428" lon="6.39992">
        <ele>718.65</ele>
        <time>2022-04-10T09:38:12.000Z</time>
      </trkpt>
      <trkpt lat="43.79412" lon="6.3998">
        <ele>721.08</ele>
        <time>2022-04-10T09:38:19.000Z</time>
      </trkpt>
      <trkpt lat="43.79395" lon="6.39969">
        <ele>725.12</ele>
        <time>2022-04-10T09:38:32.000Z</time>
      </trkpt>
      <trkpt lat="43.79377" lon="6.39965">
        <ele>727.66</ele>
        <time>2022-04-10T09:38:45.000Z</time>
      </trkpt>
      <trkpt lat="43.79359" lon="6.3997">
        <ele>731.89</ele>
        <time>2022-04-10T09:38:56.000Z</time>
      </trkpt>
      <trkpt lat="43.79341" lon="6.39971">
        <ele>735.41</ele>
        <time>2022-04-10T09:39:07.000Z</time>
      </trkpt>
      <trkpt lat="43.79322" lon="6.3997">
        <ele>738.85</ele>
        <time>2022-04-10T09:39:19.000Z</time>
      </trkpt>
      <trkpt lat="43.79304" lon="6.39964">
        <ele>741.63</ele>
        <time>2022-04-10T09:39:33.000Z</time>
      </trkpt>
      <trkpt lat="43.79286" lon="6.39955">
        <ele>741.55</ele>
        <time>2022-04-10T09:39:48.000Z</time>
      </trkpt>
      <trkpt lat="43.79268" lon="6.39947">
        <ele>741.49</ele>
        <time>2022-04-10T09:40:20.000Z</time>
      </trkpt>
      <trkpt lat="43.79249" lon="6.39946">
        <ele>742.1</ele>
        <time>2022-04-10T09:40:30.000Z</time>
      </trkpt>
      <trkpt lat="43.79231" lon="6.39942">
        <ele>742.89</ele>
        <time>2022-04-10T09:40:39.000Z</time>
      </trkpt>
      <trkpt lat="43.79212" lon="6.39936">
        <ele>743.24</ele>
        <time>2022-04-10T09:40:50.000Z</time>
      </trkpt>
      <trkpt lat="43.79194" lon="6.3993">
        <ele>743.67</ele>
        <time>2022-04-10T09:41:01.000Z</time>
      </trkpt>
      <trkpt lat="43.79175" lon="6.39927">
        <ele>743.17</ele>
        <time>2022-04-10T09:41:10.000Z</time>
      </trkpt>
      <trkpt lat="43.79156" lon="6.39931">
        <ele>744.32</ele>
        <time>2022-04-10T09:41:21.000Z</time>
      </trkpt>
      <trkpt lat="43.79176" lon="6.39924">
        <ele>746.58</ele>
        <time>2022-04-10T09:46:50.000Z</time>
      </trkpt>
      <trkpt lat="43.79195" lon="6.3993">
        <ele>745.31</ele>
        <time>2022-04-10T09:46:57.000Z</time>
      </trkpt>
      <trkpt lat="43.79213" lon="6.39935">
        <ele>744.69</ele>
        <time>2022-04-10T09:47:03.000Z</time>
      </trkpt>
      <trkpt lat="43.79233" lon="6.39941">
        <ele>744.01</ele>
        <time>2022-04-10T09:47:08.000Z</time>
      </trkpt>
      <trkpt lat="43.79252" lon="6.39945">
        <ele>743.79</ele>
        <time>2022-04-10T09:47:13.000Z</time>
      </trkpt>
      <trkpt lat="43.79272" lon="6.39947">
        <ele>743.63</ele>
        <time>2022-04-10T09:47:21.000Z</time>
      </trkpt>
      <trkpt lat="43.79294" lon="6.3994">
        <ele>743.57</ele>
        <time>2022-04-10T09:47:45.000Z</time>
      </trkpt>
      <trkpt lat="43.79312" lon="6.39942">
        <ele>744.86</ele>
        <time>2022-04-10T09:47:57.000Z</time>
      </trkpt>
      <trkpt lat="43.79328" lon="6.39926">
        <ele>746.9</ele>
        <time>2022-04-10T09:48:07.000Z</time>
      </trkpt>
      <trkpt lat="43.79342" lon="6.39909">
        <ele>744.73</ele>
        <time>2022-04-10T09:48:13.000Z</time>
      </trkpt>
      <trkpt lat="43.79356" lon="6.3989">
        <ele>743.68</ele>
        <time>2022-04-10T09:48:19.000Z</time>
      </trkpt>
      <trkpt lat="43.79372" lon="6.39878">
        <ele>742.48</ele>
        <time>2022-04-10T09:48:24.000Z</time>
      </trkpt>
      <trkpt lat="43.79387" lon="6.39861">
        <ele>740.8</ele>
        <time>2022-04-10T09:48:31.000Z</time>
      </trkpt>
      <trkpt lat="43.794" lon="6.39841">
        <ele>736.24</ele>
        <time>2022-04-10T09:48:37.000Z</time>
      </trkpt>
      <trkpt lat="43.79418" lon="6.39851">
        <ele>733.52</ele>
        <time>2022-04-10T09:48:51.000Z</time>
      </trkpt>
      <trkpt lat="43.79437" lon="6.39845">
        <ele>733.1</ele>
        <time>2022-04-10T09:48:59.000Z</time>
      </trkpt>
      <trkpt lat="43.79457" lon="6.39847">
        <ele>733.12</ele>
        <time>2022-04-10T09:49:10.000Z</time>
      </trkpt>
      <trkpt lat="43.79469" lon="6.39826">
        <ele>733.67</ele>
        <time>2022-04-10T09:49:20.000Z</time>
      </trkpt>
      <trkpt lat="43.79468" lon="6.398">
        <ele>736.32</ele>
        <time>2022-04-10T09:49:29.000Z</time>
      </trkpt>
      <trkpt lat="43.79466" lon="6.39775">
        <ele>739.23</ele>
        <time>2022-04-10T09:49:38.000Z</time>
      </trkpt>
      <trkpt lat="43.79471" lon="6.39749">
        <ele>741.41</ele>
        <time>2022-04-10T09:49:49.000Z</time>
      </trkpt>
      <trkpt lat="43.79482" lon="6.39729">
        <ele>743.75</ele>
        <time>2022-04-10T09:49:59.000Z</time>
      </trkpt>
      <trkpt lat="43.79489" lon="6.39705">
        <ele>745.13</ele>
        <time>2022-04-10T09:50:10.000Z</time>
      </trkpt>
      <trkpt lat="43.79483" lon="6.39681">
        <ele>743.91</ele>
        <time>2022-04-10T09:50:20.000Z</time>
      </trkpt>
      <trkpt lat="43.7947" lon="6.39662">
        <ele>750.64</ele>
        <time>2022-04-10T09:50:30.000Z</time>
      </trkpt>
      <trkpt lat="43.79461" lon="6.39638">
        <ele>753.5</ele>
        <time>2022-04-10T09:50:40.000Z</time>
      </trkpt>
      <trkpt lat="43.7946" lon="6.3961">
        <ele>753.81</ele>
        <time>2022-04-10T09:50:50.000Z</time>
      </trkpt>
      <trkpt lat="43.79463" lon="6.39584">
        <ele>754.83</ele>
        <time>2022-04-10T09:51:00.000Z</time>
      </trkpt>
      <trkpt lat="43.79463" lon="6.39557">
        <ele>756.91</ele>
        <time>2022-04-10T09:51:10.000Z</time>
      </trkpt>
      <trkpt lat="43.79463" lon="6.39531">
        <ele>759.26</ele>
        <time>2022-04-10T09:51:21.000Z</time>
      </trkpt>
      <trkpt lat="43.7946" lon="6.39504">
        <ele>763.51</ele>
        <time>2022-04-10T09:51:32.000Z</time>
      </trkpt>
      <trkpt lat="43.79457" lon="6.39479">
        <ele>765.03</ele>
        <time>2022-04-10T09:51:42.000Z</time>
      </trkpt>
      <trkpt lat="43.79457" lon="6.39453">
        <ele>766.11</ele>
        <time>2022-04-10T09:51:52.000Z</time>
      </trkpt>
      <trkpt lat="43.79458" lon="6.39428">
        <ele>765.26</ele>
        <time>2022-04-10T09:52:02.000Z</time>
      </trkpt>
      <trkpt lat="43.79456" lon="6.39403">
        <ele>766.45</ele>
        <time>2022-04-10T09:52:12.000Z</time>
      </trkpt>
      <trkpt lat="43.79453" lon="6.39376">
        <ele>767.48</ele>
        <time>2022-04-10T09:52:23.000Z</time>
      </trkpt>
      <trkpt lat="43.79449" lon="6.39351">
        <ele>768.24</ele>
        <time>2022-04-10T09:52:33.000Z</time>
      </trkpt>
      <trkpt lat="43.79444" lon="6.39325">
        <ele>769.62</ele>
        <time>2022-04-10T09:52:43.000Z</time>
      </trkpt>
      <trkpt lat="43.79441" lon="6.39298">
        <ele>770.36</ele>
        <time>2022-04-10T09:52:53.000Z</time>
      </trkpt>
      <trkpt lat="43.79437" lon="6.39271">
        <ele>771.9</ele>
        <time>2022-04-10T09:53:02.000Z</time>
      </trkpt>
      <trkpt lat="43.79435" lon="6.39245">
        <ele>771.78</ele>
        <time>2022-04-10T09:53:12.000Z</time>
      </trkpt>
      <trkpt lat="43.79438" lon="6.39219">
        <ele>772.2</ele>
        <time>2022-04-10T09:53:22.000Z</time>
      </trkpt>
      <trkpt lat="43.7944" lon="6.39192">
        <ele>772.32</ele>
        <time>2022-04-10T09:53:32.000Z</time>
      </trkpt>
      <trkpt lat="43.7944" lon="6.39165">
        <ele>774.96</ele>
        <time>2022-04-10T09:53:42.000Z</time>
      </trkpt>
      <trkpt lat="43.79442" lon="6.39138">
        <ele>775.74</ele>
        <time>2022-04-10T09:53:52.000Z</time>
      </trkpt>
      <trkpt lat="43.79448" lon="6.39113">
        <ele>778.48</ele>
        <time>2022-04-10T09:54:01.000Z</time>
      </trkpt>
      <trkpt lat="43.79457" lon="6.3909">
        <ele>780.38</ele>
        <time>2022-04-10T09:54:11.000Z</time>
      </trkpt>
      <trkpt lat="43.7947" lon="6.3907">
        <ele>781.92</ele>
        <time>2022-04-10T09:54:21.000Z</time>
      </trkpt>
      <trkpt lat="43.79489" lon="6.39072">
        <ele>782.71</ele>
        <time>2022-04-10T09:54:32.000Z</time>
      </trkpt>
      <trkpt lat="43.79504" lon="6.39086">
        <ele>785.56</ele>
        <time>2022-04-10T09:54:44.000Z</time>
      </trkpt>
      <trkpt lat="43.79518" lon="6.39102">
        <ele>787.05</ele>
        <time>2022-04-10T09:54:56.000Z</time>
      </trkpt>
      <trkpt lat="43.7953" lon="6.39122">
        <ele>789.38</ele>
        <time>2022-04-10T09:55:09.000Z</time>
      </trkpt>
      <trkpt lat="43.79545" lon="6.39139">
        <ele>791.84</ele>
        <time>2022-04-10T09:55:21.000Z</time>
      </trkpt>
      <trkpt lat="43.79562" lon="6.39151">
        <ele>795.75</ele>
        <time>2022-04-10T09:55:32.000Z</time>
      </trkpt>
      <trkpt lat="43.79578" lon="6.39162">
        <ele>796.81</ele>
        <time>2022-04-10T09:55:43.000Z</time>
      </trkpt>
      <trkpt lat="43.79595" lon="6.39176">
        <ele>799.1</ele>
        <time>2022-04-10T09:55:55.000Z</time>
      </trkpt>
      <trkpt lat="43.7961" lon="6.39192">
        <ele>801.6</ele>
        <time>2022-04-10T09:56:06.000Z</time>
      </trkpt>
      <trkpt lat="43.79624" lon="6.3921">
        <ele>802.06</ele>
        <time>2022-04-10T09:56:17.000Z</time>
      </trkpt>
      <trkpt lat="43.79624" lon="6.39235">
        <ele>803.15</ele>
        <time>2022-04-10T09:56:29.000Z</time>
      </trkpt>
      <trkpt lat="43.79606" lon="6.39227">
        <ele>806.1</ele>
        <time>2022-04-10T09:56:41.000Z</time>
      </trkpt>
      <trkpt lat="43.79592" lon="6.3921">
        <ele>807.37</ele>
        <time>2022-04-10T09:56:52.000Z</time>
      </trkpt>
      <trkpt lat="43.79575" lon="6.392">
        <ele>808.23</ele>
        <time>2022-04-10T09:57:02.000Z</time>
      </trkpt>
      <trkpt lat="43.79555" lon="6.39199">
        <ele>810.49</ele>
        <time>2022-04-10T09:57:13.000Z</time>
      </trkpt>
      <trkpt lat="43.79536" lon="6.39199">
        <ele>811.88</ele>
        <time>2022-04-10T09:57:24.000Z</time>
      </trkpt>
      <trkpt lat="43.79516" lon="6.39201">
        <ele>813.98</ele>
        <time>2022-04-10T09:57:35.000Z</time>
      </trkpt>
      <trkpt lat="43.795" lon="6.39213">
        <ele>814.66</ele>
        <time>2022-04-10T09:57:46.000Z</time>
      </trkpt>
      <trkpt lat="43.79496" lon="6.3924">
        <ele>815.95</ele>
        <time>2022-04-10T09:57:57.000Z</time>
      </trkpt>
      <trkpt lat="43.795" lon="6.39265">
        <ele>816.73</ele>
        <time>2022-04-10T09:58:08.000Z</time>
      </trkpt>
      <trkpt lat="43.79507" lon="6.3929">
        <ele>819.52</ele>
        <time>2022-04-10T09:58:20.000Z</time>
      </trkpt>
      <trkpt lat="43.79516" lon="6.39312">
        <ele>820.44</ele>
        <time>2022-04-10T09:58:31.000Z</time>
      </trkpt>
      <trkpt lat="43.79526" lon="6.39334">
        <ele>820.88</ele>
        <time>2022-04-10T09:58:42.000Z</time>
      </trkpt>
      <trkpt lat="43.79537" lon="6.39355">
        <ele>822.62</ele>
        <time>2022-04-10T09:58:53.000Z</time>
      </trkpt>
      <trkpt lat="43.79549" lon="6.39374">
        <ele>824.28</ele>
        <time>2022-04-10T09:59:03.000Z</time>
      </trkpt>
      <trkpt lat="43.79565" lon="6.39391">
        <ele>826.91</ele>
        <time>2022-04-10T09:59:14.000Z</time>
      </trkpt>
      <trkpt lat="43.79579" lon="6.39408">
        <ele>829.34</ele>
        <time>2022-04-10T09:59:25.000Z</time>
      </trkpt>
      <trkpt lat="43.79591" lon="6.39428">
        <ele>830.28</ele>
        <time>2022-04-10T09:59:36.000Z</time>
      </trkpt>
      <trkpt lat="43.79603" lon="6.39449">
        <ele>832.08</ele>
        <time>2022-04-10T09:59:48.000Z</time>
      </trkpt>
      <trkpt lat="43.79612" lon="6.39474">
        <ele>833.38</ele>
        <time>2022-04-10T10:00:00.000Z</time>
      </trkpt>
      <trkpt lat="43.79617" lon="6.39499">
        <ele>835.06</ele>
        <time>2022-04-10T10:00:11.000Z</time>
      </trkpt>
      <trkpt lat="43.79623" lon="6.39522">
        <ele>834.91</ele>
        <time>2022-04-10T10:00:21.000Z</time>
      </trkpt>
      <trkpt lat="43.79641" lon="6.39526">
        <ele>835.99</ele>
        <time>2022-04-10T10:00:32.000Z</time>
      </trkpt>
      <trkpt lat="43.79647" lon="6.39502">
        <ele>835.48</ele>
        <time>2022-04-10T10:00:43.000Z</time>
      </trkpt>
      <trkpt lat="43.7965" lon="6.39475">
        <ele>837</ele>
        <time>2022-04-10T10:00:55.000Z</time>
      </trkpt>
      <trkpt lat="43.79666" lon="6.39463">
        <ele>839.8</ele>
        <time>2022-04-10T10:01:07.000Z</time>
      </trkpt>
      <trkpt lat="43.79682" lon="6.39477">
        <ele>843.11</ele>
        <time>2022-04-10T10:01:19.000Z</time>
      </trkpt>
      <trkpt lat="43.79695" lon="6.39494">
        <ele>845.35</ele>
        <time>2022-04-10T10:01:30.000Z</time>
      </trkpt>
      <trkpt lat="43.7971" lon="6.3951">
        <ele>846.93</ele>
        <time>2022-04-10T10:01:41.000Z</time>
      </trkpt>
      <trkpt lat="43.79728" lon="6.3952">
        <ele>849.05</ele>
        <time>2022-04-10T10:01:52.000Z</time>
      </trkpt>
      <trkpt lat="43.79746" lon="6.39514">
        <ele>849.79</ele>
        <time>2022-04-10T10:02:02.000Z</time>
      </trkpt>
      <trkpt lat="43.79761" lon="6.39498">
        <ele>850.66</ele>
        <time>2022-04-10T10:02:11.000Z</time>
      </trkpt>
      <trkpt lat="43.79772" lon="6.39476">
        <ele>851.89</ele>
        <time>2022-04-10T10:02:23.000Z</time>
      </trkpt>
      <trkpt lat="43.79781" lon="6.39451">
        <ele>855.59</ele>
        <time>2022-04-10T10:02:34.000Z</time>
      </trkpt>
      <trkpt lat="43.79789" lon="6.39426">
        <ele>855.6</ele>
        <time>2022-04-10T10:02:45.000Z</time>
      </trkpt>
      <trkpt lat="43.79793" lon="6.39401">
        <ele>856.35</ele>
        <time>2022-04-10T10:02:55.000Z</time>
      </trkpt>
      <trkpt lat="43.79794" lon="6.39374">
        <ele>859.56</ele>
        <time>2022-04-10T10:03:05.000Z</time>
      </trkpt>
      <trkpt lat="43.79795" lon="6.39347">
        <ele>859.76</ele>
        <time>2022-04-10T10:03:15.000Z</time>
      </trkpt>
      <trkpt lat="43.79798" lon="6.39321">
        <ele>859.38</ele>
        <time>2022-04-10T10:03:24.000Z</time>
      </trkpt>
      <trkpt lat="43.79808" lon="6.39298">
        <ele>861.21</ele>
        <time>2022-04-10T10:03:31.000Z</time>
      </trkpt>
      <trkpt lat="43.79823" lon="6.3928">
        <ele>860.23</ele>
        <time>2022-04-10T10:03:38.000Z</time>
      </trkpt>
      <trkpt lat="43.79842" lon="6.39275">
        <ele>862.13</ele>
        <time>2022-04-10T10:03:46.000Z</time>
      </trkpt>
      <trkpt lat="43.7986" lon="6.39274">
        <ele>862.84</ele>
        <time>2022-04-10T10:03:53.000Z</time>
      </trkpt>
      <trkpt lat="43.7988" lon="6.39276">
        <ele>863.75</ele>
        <time>2022-04-10T10:04:00.000Z</time>
      </trkpt>
      <trkpt lat="43.79898" lon="6.3928">
        <ele>864.3</ele>
        <time>2022-04-10T10:04:06.000Z</time>
      </trkpt>
      <trkpt lat="43.79916" lon="6.3928">
        <ele>864.85</ele>
        <time>2022-04-10T10:04:12.000Z</time>
      </trkpt>
      <trkpt lat="43.79934" lon="6.39274">
        <ele>864.86</ele>
        <time>2022-04-10T10:04:18.000Z</time>
      </trkpt>
      <trkpt lat="43.79952" lon="6.3926">
        <ele>864.82</ele>
        <time>2022-04-10T10:04:25.000Z</time>
      </trkpt>
      <trkpt lat="43.79963" lon="6.39239">
        <ele>865.17</ele>
        <time>2022-04-10T10:04:32.000Z</time>
      </trkpt>
      <trkpt lat="43.79971" lon="6.39214">
        <ele>865.31</ele>
        <time>2022-04-10T10:04:39.000Z</time>
      </trkpt>
      <trkpt lat="43.79976" lon="6.39188">
        <ele>865.6</ele>
        <time>2022-04-10T10:04:46.000Z</time>
      </trkpt>
      <trkpt lat="43.79977" lon="6.39162">
        <ele>864.85</ele>
        <time>2022-04-10T10:04:53.000Z</time>
      </trkpt>
      <trkpt lat="43.79982" lon="6.39187">
        <ele>869.5</ele>
        <time>2022-04-10T10:05:08.000Z</time>
      </trkpt>
      <trkpt lat="43.79983" lon="6.39213">
        <ele>871.89</ele>
        <time>2022-04-10T10:05:16.000Z</time>
      </trkpt>
      <trkpt lat="43.79985" lon="6.39238">
        <ele>872.65</ele>
        <time>2022-04-10T10:05:24.000Z</time>
      </trkpt>
      <trkpt lat="43.79987" lon="6.39264">
        <ele>873.4</ele>
        <time>2022-04-10T10:05:33.000Z</time>
      </trkpt>
      <trkpt lat="43.79987" lon="6.39291">
        <ele>874.77</ele>
        <time>2022-04-10T10:05:42.000Z</time>
      </trkpt>
      <trkpt lat="43.79982" lon="6.39317">
        <ele>875.42</ele>
        <time>2022-04-10T10:05:51.000Z</time>
      </trkpt>
      <trkpt lat="43.7997" lon="6.39338">
        <ele>877.68</ele>
        <time>2022-04-10T10:06:01.000Z</time>
      </trkpt>
      <trkpt lat="43.79956" lon="6.39355">
        <ele>878.87</ele>
        <time>2022-04-10T10:06:10.000Z</time>
      </trkpt>
      <trkpt lat="43.79943" lon="6.39375">
        <ele>880.43</ele>
        <time>2022-04-10T10:06:20.000Z</time>
      </trkpt>
      <trkpt lat="43.79934" lon="6.39397">
        <ele>881.54</ele>
        <time>2022-04-10T10:06:30.000Z</time>
      </trkpt>
      <trkpt lat="43.7993" lon="6.39423">
        <ele>884.38</ele>
        <time>2022-04-10T10:06:40.000Z</time>
      </trkpt>
      <trkpt lat="43.79932" lon="6.3945">
        <ele>884.2</ele>
        <time>2022-04-10T10:06:50.000Z</time>
      </trkpt>
      <trkpt lat="43.79933" lon="6.39476">
        <ele>885.78</ele>
        <time>2022-04-10T10:07:00.000Z</time>
      </trkpt>
      <trkpt lat="43.79931" lon="6.39502">
        <ele>887.61</ele>
        <time>2022-04-10T10:07:09.000Z</time>
      </trkpt>
      <trkpt lat="43.79929" lon="6.39528">
        <ele>887.87</ele>
        <time>2022-04-10T10:07:17.000Z</time>
      </trkpt>
      <trkpt lat="43.79928" lon="6.39555">
        <ele>888.81</ele>
        <time>2022-04-10T10:07:25.000Z</time>
      </trkpt>
      <trkpt lat="43.79926" lon="6.3958">
        <ele>888.99</ele>
        <time>2022-04-10T10:07:33.000Z</time>
      </trkpt>
      <trkpt lat="43.79925" lon="6.39606">
        <ele>889.94</ele>
        <time>2022-04-10T10:07:41.000Z</time>
      </trkpt>
      <trkpt lat="43.79927" lon="6.39632">
        <ele>890.06</ele>
        <time>2022-04-10T10:07:49.000Z</time>
      </trkpt>
      <trkpt lat="43.79931" lon="6.3966">
        <ele>890.25</ele>
        <time>2022-04-10T10:07:57.000Z</time>
      </trkpt>
      <trkpt lat="43.79933" lon="6.39686">
        <ele>890.69</ele>
        <time>2022-04-10T10:08:04.000Z</time>
      </trkpt>
      <trkpt lat="43.79935" lon="6.39712">
        <ele>890.87</ele>
        <time>2022-04-10T10:08:11.000Z</time>
      </trkpt>
      <trkpt lat="43.79937" lon="6.39737">
        <ele>892.99</ele>
        <time>2022-04-10T10:08:18.000Z</time>
      </trkpt>
      <trkpt lat="43.79939" lon="6.39762">
        <ele>894.08</ele>
        <time>2022-04-10T10:08:25.000Z</time>
      </trkpt>
      <trkpt lat="43.79942" lon="6.39788">
        <ele>894.57</ele>
        <time>2022-04-10T10:08:32.000Z</time>
      </trkpt>
      <trkpt lat="43.79952" lon="6.39808">
        <ele>895.46</ele>
        <time>2022-04-10T10:08:39.000Z</time>
      </trkpt>
      <trkpt lat="43.79966" lon="6.39824">
        <ele>897.28</ele>
        <time>2022-04-10T10:08:46.000Z</time>
      </trkpt>
      <trkpt lat="43.79981" lon="6.39838">
        <ele>897.18</ele>
        <time>2022-04-10T10:08:53.000Z</time>
      </trkpt>
      <trkpt lat="43.79997" lon="6.39852">
        <ele>899.25</ele>
        <time>2022-04-10T10:09:03.000Z</time>
      </trkpt>
      <trkpt lat="43.80006" lon="6.39874">
        <ele>902.95</ele>
        <time>2022-04-10T10:09:14.000Z</time>
      </trkpt>
      <trkpt lat="43.80011" lon="6.39899">
        <ele>903.96</ele>
        <time>2022-04-10T10:09:25.000Z</time>
      </trkpt>
      <trkpt lat="43.80006" lon="6.39924">
        <ele>903.98</ele>
        <time>2022-04-10T10:09:34.000Z</time>
      </trkpt>
      <trkpt lat="43.79999" lon="6.3995">
        <ele>904.38</ele>
        <time>2022-04-10T10:09:43.000Z</time>
      </trkpt>
      <trkpt lat="43.79993" lon="6.39973">
        <ele>905.05</ele>
        <time>2022-04-10T10:09:52.000Z</time>
      </trkpt>
      <trkpt lat="43.79986" lon="6.39997">
        <ele>904.59</ele>
        <time>2022-04-10T10:10:01.000Z</time>
      </trkpt>
      <trkpt lat="43.79981" lon="6.40024">
        <ele>905.33</ele>
        <time>2022-04-10T10:10:11.000Z</time>
      </trkpt>
      <trkpt lat="43.79975" lon="6.40049">
        <ele>905.01</ele>
        <time>2022-04-10T10:10:22.000Z</time>
      </trkpt>
      <trkpt lat="43.79969" lon="6.40073">
        <ele>906.45</ele>
        <time>2022-04-10T10:10:34.000Z</time>
      </trkpt>
      <trkpt lat="43.79959" lon="6.40096">
        <ele>907.95</ele>
        <time>2022-04-10T10:10:46.000Z</time>
      </trkpt>
      <trkpt lat="43.79948" lon="6.40118">
        <ele>909.19</ele>
        <time>2022-04-10T10:10:56.000Z</time>
      </trkpt>
      <trkpt lat="43.79935" lon="6.40137">
        <ele>910.58</ele>
        <time>2022-04-10T10:11:07.000Z</time>
      </trkpt>
      <trkpt lat="43.79929" lon="6.40113">
        <ele>911.87</ele>
        <time>2022-04-10T10:11:25.000Z</time>
      </trkpt>
      <trkpt lat="43.79925" lon="6.40137">
        <ele>913.25</ele>
        <time>2022-04-10T10:17:19.000Z</time>
      </trkpt>
      <trkpt lat="43.79923" lon="6.40163">
        <ele>912.17</ele>
        <time>2022-04-10T10:17:31.000Z</time>
      </trkpt>
      <trkpt lat="43.79914" lon="6.40187">
        <ele>910.58</ele>
        <time>2022-04-10T10:17:43.000Z</time>
      </trkpt>
      <trkpt lat="43.79908" lon="6.40211">
        <ele>908.31</ele>
        <time>2022-04-10T10:17:57.000Z</time>
      </trkpt>
      <trkpt lat="43.79906" lon="6.40236">
        <ele>912</ele>
        <time>2022-04-10T10:18:06.000Z</time>
      </trkpt>
      <trkpt lat="43.79921" lon="6.40259">
        <ele>913.63</ele>
        <time>2022-04-10T10:18:58.000Z</time>
      </trkpt>
      <trkpt lat="43.79938" lon="6.40274">
        <ele>915.97</ele>
        <time>2022-04-10T10:19:10.000Z</time>
      </trkpt>
      <trkpt lat="43.79922" lon="6.40261">
        <ele>913.3</ele>
        <time>2022-04-10T10:41:53.000Z</time>
      </trkpt>
      <trkpt lat="43.79938" lon="6.40274">
        <ele>915.44</ele>
        <time>2022-04-10T11:01:42.000Z</time>
      </trkpt>
      <trkpt lat="43.79957" lon="6.40276">
        <ele>918.43</ele>
        <time>2022-04-10T11:01:53.000Z</time>
      </trkpt>
      <trkpt lat="43.79974" lon="6.40284">
        <ele>918.09</ele>
        <time>2022-04-10T11:02:02.000Z</time>
      </trkpt>
      <trkpt lat="43.79989" lon="6.40301">
        <ele>919.96</ele>
        <time>2022-04-10T11:02:12.000Z</time>
      </trkpt>
      <trkpt lat="43.80002" lon="6.4032">
        <ele>921.89</ele>
        <time>2022-04-10T11:02:23.000Z</time>
      </trkpt>
      <trkpt lat="43.8002" lon="6.40326">
        <ele>921.91</ele>
        <time>2022-04-10T11:02:37.000Z</time>
      </trkpt>
      <trkpt lat="43.80038" lon="6.40319">
        <ele>921.84</ele>
        <time>2022-04-10T11:02:47.000Z</time>
      </trkpt>
      <trkpt lat="43.80057" lon="6.40306">
        <ele>919.74</ele>
        <time>2022-04-10T11:02:55.000Z</time>
      </trkpt>
      <trkpt lat="43.80079" lon="6.40307">
        <ele>918.46</ele>
        <time>2022-04-10T11:03:00.000Z</time>
      </trkpt>
      <trkpt lat="43.80096" lon="6.40323">
        <ele>919.58</ele>
        <time>2022-04-10T11:03:05.000Z</time>
      </trkpt>
      <trkpt lat="43.8011" lon="6.40338">
        <ele>920.93</ele>
        <time>2022-04-10T11:03:13.000Z</time>
      </trkpt>
      <trkpt lat="43.80126" lon="6.40355">
        <ele>920.43</ele>
        <time>2022-04-10T11:03:19.000Z</time>
      </trkpt>
      <trkpt lat="43.80137" lon="6.40377">
        <ele>919.88</ele>
        <time>2022-04-10T11:03:25.000Z</time>
      </trkpt>
      <trkpt lat="43.80139" lon="6.40402">
        <ele>919.94</ele>
        <time>2022-04-10T11:03:31.000Z</time>
      </trkpt>
      <trkpt lat="43.80134" lon="6.4043">
        <ele>918.91</ele>
        <time>2022-04-10T11:03:37.000Z</time>
      </trkpt>
      <trkpt lat="43.80129" lon="6.40459">
        <ele>918.51</ele>
        <time>2022-04-10T11:03:42.000Z</time>
      </trkpt>
      <trkpt lat="43.80126" lon="6.40486">
        <ele>919.37</ele>
        <time>2022-04-10T11:03:47.000Z</time>
      </trkpt>
      <trkpt lat="43.80122" lon="6.40513">
        <ele>922.42</ele>
        <time>2022-04-10T11:03:54.000Z</time>
      </trkpt>
      <trkpt lat="43.80116" lon="6.40537">
        <ele>923.18</ele>
        <time>2022-04-10T11:04:02.000Z</time>
      </trkpt>
      <trkpt lat="43.80111" lon="6.40561">
        <ele>922.65</ele>
        <time>2022-04-10T11:04:11.000Z</time>
      </trkpt>
      <trkpt lat="43.80109" lon="6.40587">
        <ele>921.2</ele>
        <time>2022-04-10T11:04:17.000Z</time>
      </trkpt>
      <trkpt lat="43.80123" lon="6.40605">
        <ele>921.75</ele>
        <time>2022-04-10T11:04:23.000Z</time>
      </trkpt>
      <trkpt lat="43.80141" lon="6.40614">
        <ele>922.59</ele>
        <time>2022-04-10T11:04:29.000Z</time>
      </trkpt>
      <trkpt lat="43.80159" lon="6.40616">
        <ele>925.54</ele>
        <time>2022-04-10T11:04:36.000Z</time>
      </trkpt>
      <trkpt lat="43.80176" lon="6.40627">
        <ele>925.96</ele>
        <time>2022-04-10T11:04:43.000Z</time>
      </trkpt>
      <trkpt lat="43.80177" lon="6.40655">
        <ele>924.77</ele>
        <time>2022-04-10T11:04:49.000Z</time>
      </trkpt>
      <trkpt lat="43.80173" lon="6.40682">
        <ele>923.12</ele>
        <time>2022-04-10T11:04:53.000Z</time>
      </trkpt>
      <trkpt lat="43.80176" lon="6.4071">
        <ele>921.61</ele>
        <time>2022-04-10T11:04:57.000Z</time>
      </trkpt>
      <trkpt lat="43.80178" lon="6.40737">
        <ele>920.18</ele>
        <time>2022-04-10T11:05:01.000Z</time>
      </trkpt>
      <trkpt lat="43.80182" lon="6.40766">
        <ele>919.68</ele>
        <time>2022-04-10T11:05:06.000Z</time>
      </trkpt>
      <trkpt lat="43.80186" lon="6.40792">
        <ele>919.24</ele>
        <time>2022-04-10T11:05:10.000Z</time>
      </trkpt>
      <trkpt lat="43.80185" lon="6.40818">
        <ele>919.33</ele>
        <time>2022-04-10T11:05:15.000Z</time>
      </trkpt>
      <trkpt lat="43.80186" lon="6.40849">
        <ele>919.05</ele>
        <time>2022-04-10T11:05:22.000Z</time>
      </trkpt>
      <trkpt lat="43.80189" lon="6.40879">
        <ele>917.47</ele>
        <time>2022-04-10T11:05:26.000Z</time>
      </trkpt>
      <trkpt lat="43.80195" lon="6.40904">
        <ele>917.17</ele>
        <time>2022-04-10T11:05:29.000Z</time>
      </trkpt>
      <trkpt lat="43.80203" lon="6.40935">
        <ele>917.1</ele>
        <time>2022-04-10T11:05:33.000Z</time>
      </trkpt>
      <trkpt lat="43.80213" lon="6.40963">
        <ele>916.44</ele>
        <time>2022-04-10T11:05:37.000Z</time>
      </trkpt>
      <trkpt lat="43.80225" lon="6.40983">
        <ele>917.2</ele>
        <time>2022-04-10T11:05:42.000Z</time>
      </trkpt>
      <trkpt lat="43.80236" lon="6.41004">
        <ele>917.19</ele>
        <time>2022-04-10T11:05:49.000Z</time>
      </trkpt>
      <trkpt lat="43.80235" lon="6.41029">
        <ele>916.02</ele>
        <time>2022-04-10T11:05:54.000Z</time>
      </trkpt>
      <trkpt lat="43.80243" lon="6.41058">
        <ele>914.92</ele>
        <time>2022-04-10T11:05:59.000Z</time>
      </trkpt>
      <trkpt lat="43.80254" lon="6.41082">
        <ele>914.11</ele>
        <time>2022-04-10T11:06:05.000Z</time>
      </trkpt>
      <trkpt lat="43.80243" lon="6.41104">
        <ele>915.95</ele>
        <time>2022-04-10T11:06:17.000Z</time>
      </trkpt>
      <trkpt lat="43.80231" lon="6.41125">
        <ele>917.79</ele>
        <time>2022-04-10T11:06:26.000Z</time>
      </trkpt>
      <trkpt lat="43.80232" lon="6.41152">
        <ele>920.29</ele>
        <time>2022-04-10T11:06:36.000Z</time>
      </trkpt>
      <trkpt lat="43.80236" lon="6.41177">
        <ele>923.68</ele>
        <time>2022-04-10T11:06:48.000Z</time>
      </trkpt>
      <trkpt lat="43.80229" lon="6.412">
        <ele>925.93</ele>
        <time>2022-04-10T11:08:29.000Z</time>
      </trkpt>
      <trkpt lat="43.80223" lon="6.41229">
        <ele>928.55</ele>
        <time>2022-04-10T11:08:52.000Z</time>
      </trkpt>
      <trkpt lat="43.80219" lon="6.41254">
        <ele>930.08</ele>
        <time>2022-04-10T11:09:09.000Z</time>
      </trkpt>
      <trkpt lat="43.80215" lon="6.41279">
        <ele>933.42</ele>
        <time>2022-04-10T11:09:25.000Z</time>
      </trkpt>
      <trkpt lat="43.80211" lon="6.41304">
        <ele>937.08</ele>
        <time>2022-04-10T11:09:38.000Z</time>
      </trkpt>
      <trkpt lat="43.80205" lon="6.41327">
        <ele>938.42</ele>
        <time>2022-04-10T11:09:53.000Z</time>
      </trkpt>
      <trkpt lat="43.80199" lon="6.41351">
        <ele>939.68</ele>
        <time>2022-04-10T11:10:06.000Z</time>
      </trkpt>
      <trkpt lat="43.80196" lon="6.41376">
        <ele>942.81</ele>
        <time>2022-04-10T11:10:19.000Z</time>
      </trkpt>
      <trkpt lat="43.80182" lon="6.41392">
        <ele>945.28</ele>
        <time>2022-04-10T11:10:34.000Z</time>
      </trkpt>
      <trkpt lat="43.80163" lon="6.41399">
        <ele>945.88</ele>
        <time>2022-04-10T11:10:46.000Z</time>
      </trkpt>
      <trkpt lat="43.80149" lon="6.41415">
        <ele>948.28</ele>
        <time>2022-04-10T11:10:58.000Z</time>
      </trkpt>
      <trkpt lat="43.80139" lon="6.41437">
        <ele>949.78</ele>
        <time>2022-04-10T11:11:10.000Z</time>
      </trkpt>
      <trkpt lat="43.80135" lon="6.41462">
        <ele>952.28</ele>
        <time>2022-04-10T11:11:23.000Z</time>
      </trkpt>
      <trkpt lat="43.8013" lon="6.41488">
        <ele>956.14</ele>
        <time>2022-04-10T11:11:37.000Z</time>
      </trkpt>
      <trkpt lat="43.80127" lon="6.41513">
        <ele>958.04</ele>
        <time>2022-04-10T11:11:48.000Z</time>
      </trkpt>
      <trkpt lat="43.80114" lon="6.41532">
        <ele>960.44</ele>
        <time>2022-04-10T11:12:01.000Z</time>
      </trkpt>
      <trkpt lat="43.80101" lon="6.41548">
        <ele>961.76</ele>
        <time>2022-04-10T11:13:21.000Z</time>
      </trkpt>
      <trkpt lat="43.80087" lon="6.41565">
        <ele>963.51</ele>
        <time>2022-04-10T11:13:31.000Z</time>
      </trkpt>
      <trkpt lat="43.80069" lon="6.41577">
        <ele>964.06</ele>
        <time>2022-04-10T11:13:42.000Z</time>
      </trkpt>
      <trkpt lat="43.80052" lon="6.41586">
        <ele>964.34</ele>
        <time>2022-04-10T11:13:51.000Z</time>
      </trkpt>
      <trkpt lat="43.80033" lon="6.41595">
        <ele>964.18</ele>
        <time>2022-04-10T11:14:00.000Z</time>
      </trkpt>
      <trkpt lat="43.80015" lon="6.41607">
        <ele>965</ele>
        <time>2022-04-10T11:14:08.000Z</time>
      </trkpt>
      <trkpt lat="43.79997" lon="6.41622">
        <ele>963.7</ele>
        <time>2022-04-10T11:14:15.000Z</time>
      </trkpt>
      <trkpt lat="43.79981" lon="6.41636">
        <ele>962.97</ele>
        <time>2022-04-10T11:14:23.000Z</time>
      </trkpt>
      <trkpt lat="43.79963" lon="6.41649">
        <ele>958.55</ele>
        <time>2022-04-10T11:22:51.000Z</time>
      </trkpt>
      <trkpt lat="43.79947" lon="6.41663">
        <ele>955.62</ele>
        <time>2022-04-10T11:22:56.000Z</time>
      </trkpt>
      <trkpt lat="43.7993" lon="6.41679">
        <ele>952.61</ele>
        <time>2022-04-10T11:23:00.000Z</time>
      </trkpt>
      <trkpt lat="43.7991" lon="6.41692">
        <ele>949.59</ele>
        <time>2022-04-10T11:23:07.000Z</time>
      </trkpt>
      <trkpt lat="43.79888" lon="6.41699">
        <ele>948.57</ele>
        <time>2022-04-10T11:23:11.000Z</time>
      </trkpt>
      <trkpt lat="43.79867" lon="6.41705">
        <ele>946.26</ele>
        <time>2022-04-10T11:23:15.000Z</time>
      </trkpt>
      <trkpt lat="43.7985" lon="6.4171">
        <ele>944.52</ele>
        <time>2022-04-10T11:23:19.000Z</time>
      </trkpt>
      <trkpt lat="43.79835" lon="6.41724">
        <ele>941.07</ele>
        <time>2022-04-10T11:23:27.000Z</time>
      </trkpt>
      <trkpt lat="43.79831" lon="6.41751">
        <ele>936.08</ele>
        <time>2022-04-10T11:25:31.000Z</time>
      </trkpt>
      <trkpt lat="43.79821" lon="6.41772">
        <ele>931.71</ele>
        <time>2022-04-10T11:25:36.000Z</time>
      </trkpt>
      <trkpt lat="43.79809" lon="6.41792">
        <ele>927.2</ele>
        <time>2022-04-10T11:25:41.000Z</time>
      </trkpt>
      <trkpt lat="43.79791" lon="6.41808">
        <ele>921.8</ele>
        <time>2022-04-10T11:25:47.000Z</time>
      </trkpt>
      <trkpt lat="43.79786" lon="6.41833">
        <ele>914.13</ele>
        <time>2022-04-10T11:25:59.000Z</time>
      </trkpt>
      <trkpt lat="43.79805" lon="6.41836">
        <ele>913.63</ele>
        <time>2022-04-10T11:27:07.000Z</time>
      </trkpt>
      <trkpt lat="43.79824" lon="6.41844">
        <ele>912.51</ele>
        <time>2022-04-10T11:27:14.000Z</time>
      </trkpt>
      <trkpt lat="43.79809" lon="6.41863">
        <ele>908.66</ele>
        <time>2022-04-10T11:27:22.000Z</time>
      </trkpt>
      <trkpt lat="43.79791" lon="6.41875">
        <ele>904.19</ele>
        <time>2022-04-10T11:27:28.000Z</time>
      </trkpt>
      <trkpt lat="43.79772" lon="6.41886">
        <ele>900.6</ele>
        <time>2022-04-10T11:27:32.000Z</time>
      </trkpt>
      <trkpt lat="43.79754" lon="6.41898">
        <ele>896.9</ele>
        <time>2022-04-10T11:27:37.000Z</time>
      </trkpt>
      <trkpt lat="43.79737" lon="6.4191">
        <ele>893.09</ele>
        <time>2022-04-10T11:27:41.000Z</time>
      </trkpt>
      <trkpt lat="43.7972" lon="6.41922">
        <ele>889.66</ele>
        <time>2022-04-10T11:27:45.000Z</time>
      </trkpt>
      <trkpt lat="43.79703" lon="6.41935">
        <ele>887.11</ele>
        <time>2022-04-10T11:27:50.000Z</time>
      </trkpt>
      <trkpt lat="43.79723" lon="6.41946">
        <ele>886.08</ele>
        <time>2022-04-10T11:27:58.000Z</time>
      </trkpt>
      <trkpt lat="43.79742" lon="6.41952">
        <ele>885.27</ele>
        <time>2022-04-10T11:28:02.000Z</time>
      </trkpt>
      <trkpt lat="43.79764" lon="6.4196">
        <ele>884.34</ele>
        <time>2022-04-10T11:28:06.000Z</time>
      </trkpt>
      <trkpt lat="43.79786" lon="6.41968">
        <ele>882.43</ele>
        <time>2022-04-10T11:28:10.000Z</time>
      </trkpt>
      <trkpt lat="43.79804" lon="6.41977">
        <ele>879.86</ele>
        <time>2022-04-10T11:28:15.000Z</time>
      </trkpt>
      <trkpt lat="43.79799" lon="6.42002">
        <ele>873.67</ele>
        <time>2022-04-10T11:28:21.000Z</time>
      </trkpt>
      <trkpt lat="43.79782" lon="6.42019">
        <ele>869.55</ele>
        <time>2022-04-10T11:28:25.000Z</time>
      </trkpt>
      <trkpt lat="43.79765" lon="6.42035">
        <ele>865.23</ele>
        <time>2022-04-10T11:28:29.000Z</time>
      </trkpt>
      <trkpt lat="43.79748" lon="6.42048">
        <ele>861.97</ele>
        <time>2022-04-10T11:28:33.000Z</time>
      </trkpt>
      <trkpt lat="43.79732" lon="6.42062">
        <ele>859.02</ele>
        <time>2022-04-10T11:28:37.000Z</time>
      </trkpt>
      <trkpt lat="43.79716" lon="6.42079">
        <ele>855.89</ele>
        <time>2022-04-10T11:28:42.000Z</time>
      </trkpt>
      <trkpt lat="43.797" lon="6.42092">
        <ele>853.2</ele>
        <time>2022-04-10T11:28:47.000Z</time>
      </trkpt>
      <trkpt lat="43.79684" lon="6.42106">
        <ele>850.67</ele>
        <time>2022-04-10T11:28:52.000Z</time>
      </trkpt>
      <trkpt lat="43.79668" lon="6.42121">
        <ele>848.3</ele>
        <time>2022-04-10T11:28:58.000Z</time>
      </trkpt>
      <trkpt lat="43.79653" lon="6.42137">
        <ele>848.83</ele>
        <time>2022-04-10T11:29:04.000Z</time>
      </trkpt>
      <trkpt lat="43.79636" lon="6.42154">
        <ele>850.92</ele>
        <time>2022-04-10T11:29:11.000Z</time>
      </trkpt>
      <trkpt lat="43.79619" lon="6.4217">
        <ele>850.68</ele>
        <time>2022-04-10T11:29:16.000Z</time>
      </trkpt>
      <trkpt lat="43.79603" lon="6.42185">
        <ele>851.13</ele>
        <time>2022-04-10T11:29:22.000Z</time>
      </trkpt>
      <trkpt lat="43.79588" lon="6.42199">
        <ele>850.99</ele>
        <time>2022-04-10T11:29:27.000Z</time>
      </trkpt>
      <trkpt lat="43.7957" lon="6.42213">
        <ele>851.41</ele>
        <time>2022-04-10T11:29:32.000Z</time>
      </trkpt>
      <trkpt lat="43.79552" lon="6.42228">
        <ele>849.62</ele>
        <time>2022-04-10T11:29:38.000Z</time>
      </trkpt>
      <trkpt lat="43.79533" lon="6.42242">
        <ele>845.93</ele>
        <time>2022-04-10T11:29:43.000Z</time>
      </trkpt>
      <trkpt lat="43.79514" lon="6.42257">
        <ele>839.61</ele>
        <time>2022-04-10T11:29:48.000Z</time>
      </trkpt>
      <trkpt lat="43.79498" lon="6.42269">
        <ele>834.84</ele>
        <time>2022-04-10T11:29:53.000Z</time>
      </trkpt>
      <trkpt lat="43.79518" lon="6.4228">
        <ele>825.23</ele>
        <time>2022-04-10T11:30:05.000Z</time>
      </trkpt>
      <trkpt lat="43.79537" lon="6.42283">
        <ele>818.99</ele>
        <time>2022-04-10T11:30:10.000Z</time>
      </trkpt>
      <trkpt lat="43.79559" lon="6.42288">
        <ele>811.58</ele>
        <time>2022-04-10T11:30:15.000Z</time>
      </trkpt>
      <trkpt lat="43.79578" lon="6.42291">
        <ele>805.7</ele>
        <time>2022-04-10T11:30:19.000Z</time>
      </trkpt>
      <trkpt lat="43.79566" lon="6.4231">
        <ele>798.04</ele>
        <time>2022-04-10T11:30:31.000Z</time>
      </trkpt>
      <trkpt lat="43.7955" lon="6.42321">
        <ele>797.83</ele>
        <time>2022-04-10T11:30:35.000Z</time>
      </trkpt>
      <trkpt lat="43.79533" lon="6.42336">
        <ele>797.25</ele>
        <time>2022-04-10T11:30:40.000Z</time>
      </trkpt>
      <trkpt lat="43.79516" lon="6.42346">
        <ele>799.01</ele>
        <time>2022-04-10T11:30:45.000Z</time>
      </trkpt>
      <trkpt lat="43.79498" lon="6.42356">
        <ele>800.02</ele>
        <time>2022-04-10T11:30:50.000Z</time>
      </trkpt>
      <trkpt lat="43.79479" lon="6.42368">
        <ele>800.57</ele>
        <time>2022-04-10T11:30:55.000Z</time>
      </trkpt>
      <trkpt lat="43.79458" lon="6.4238">
        <ele>799.32</ele>
        <time>2022-04-10T11:31:00.000Z</time>
      </trkpt>
      <trkpt lat="43.79441" lon="6.42389">
        <ele>797.67</ele>
        <time>2022-04-10T11:31:04.000Z</time>
      </trkpt>
      <trkpt lat="43.79421" lon="6.42397">
        <ele>795.03</ele>
        <time>2022-04-10T11:31:09.000Z</time>
      </trkpt>
      <trkpt lat="43.79402" lon="6.42404">
        <ele>795.81</ele>
        <time>2022-04-10T11:31:14.000Z</time>
      </trkpt>
      <trkpt lat="43.79416" lon="6.42421">
        <ele>785.68</ele>
        <time>2022-04-10T11:31:31.000Z</time>
      </trkpt>
      <trkpt lat="43.79437" lon="6.42428">
        <ele>781.14</ele>
        <time>2022-04-10T11:31:37.000Z</time>
      </trkpt>
      <trkpt lat="43.79456" lon="6.42432">
        <ele>777.81</ele>
        <time>2022-04-10T11:31:42.000Z</time>
      </trkpt>
      <trkpt lat="43.79477" lon="6.42437">
        <ele>773.7</ele>
        <time>2022-04-10T11:31:47.000Z</time>
      </trkpt>
      <trkpt lat="43.79495" lon="6.42441">
        <ele>770.01</ele>
        <time>2022-04-10T11:31:51.000Z</time>
      </trkpt>
      <trkpt lat="43.7949" lon="6.42467">
        <ele>763.13</ele>
        <time>2022-04-10T11:32:04.000Z</time>
      </trkpt>
      <trkpt lat="43.79476" lon="6.42485">
        <ele>763.99</ele>
        <time>2022-04-10T11:32:10.000Z</time>
      </trkpt>
      <trkpt lat="43.79461" lon="6.425">
        <ele>765.35</ele>
        <time>2022-04-10T11:32:15.000Z</time>
      </trkpt>
      <trkpt lat="43.79442" lon="6.42513">
        <ele>766.39</ele>
        <time>2022-04-10T11:32:20.000Z</time>
      </trkpt>
      <trkpt lat="43.79425" lon="6.4253">
        <ele>766.51</ele>
        <time>2022-04-10T11:32:25.000Z</time>
      </trkpt>
      <trkpt lat="43.79438" lon="6.42549">
        <ele>759.23</ele>
        <time>2022-04-10T11:33:05.000Z</time>
      </trkpt>
      <trkpt lat="43.79456" lon="6.4255">
        <ele>756.02</ele>
        <time>2022-04-10T11:33:10.000Z</time>
      </trkpt>
      <trkpt lat="43.79477" lon="6.42553">
        <ele>751.35</ele>
        <time>2022-04-10T11:33:16.000Z</time>
      </trkpt>
      <trkpt lat="43.79471" lon="6.42577">
        <ele>742.69</ele>
        <time>2022-04-10T11:33:28.000Z</time>
      </trkpt>
      <trkpt lat="43.79455" lon="6.42594">
        <ele>740.04</ele>
        <time>2022-04-10T11:33:33.000Z</time>
      </trkpt>
      <trkpt lat="43.79437" lon="6.42611">
        <ele>737.45</ele>
        <time>2022-04-10T11:33:38.000Z</time>
      </trkpt>
      <trkpt lat="43.79422" lon="6.42627">
        <ele>735.91</ele>
        <time>2022-04-10T11:33:42.000Z</time>
      </trkpt>
      <trkpt lat="43.79404" lon="6.42644">
        <ele>734.26</ele>
        <time>2022-04-10T11:33:47.000Z</time>
      </trkpt>
      <trkpt lat="43.79414" lon="6.42667">
        <ele>726.74</ele>
        <time>2022-04-10T11:34:03.000Z</time>
      </trkpt>
      <trkpt lat="43.79434" lon="6.42671">
        <ele>722.27</ele>
        <time>2022-04-10T11:34:10.000Z</time>
      </trkpt>
      <trkpt lat="43.79422" lon="6.42696">
        <ele>713.83</ele>
        <time>2022-04-10T11:34:20.000Z</time>
      </trkpt>
      <trkpt lat="43.79406" lon="6.42715">
        <ele>713.51</ele>
        <time>2022-04-10T11:34:25.000Z</time>
      </trkpt>
      <trkpt lat="43.79388" lon="6.42733">
        <ele>711.26</ele>
        <time>2022-04-10T11:34:29.000Z</time>
      </trkpt>
      <trkpt lat="43.79374" lon="6.42749">
        <ele>709.99</ele>
        <time>2022-04-10T11:34:33.000Z</time>
      </trkpt>
      <trkpt lat="43.79357" lon="6.42763">
        <ele>708.64</ele>
        <time>2022-04-10T11:34:37.000Z</time>
      </trkpt>
      <trkpt lat="43.79339" lon="6.42782">
        <ele>707.81</ele>
        <time>2022-04-10T11:34:42.000Z</time>
      </trkpt>
      <trkpt lat="43.79321" lon="6.428">
        <ele>707.02</ele>
        <time>2022-04-10T11:34:47.000Z</time>
      </trkpt>
      <trkpt lat="43.79328" lon="6.42823">
        <ele>694</ele>
        <time>2022-04-10T11:35:02.000Z</time>
      </trkpt>
      <trkpt lat="43.79349" lon="6.42828">
        <ele>688.41</ele>
        <time>2022-04-10T11:35:09.000Z</time>
      </trkpt>
      <trkpt lat="43.79347" lon="6.42853">
        <ele>680.72</ele>
        <time>2022-04-10T11:35:21.000Z</time>
      </trkpt>
      <trkpt lat="43.79333" lon="6.42873">
        <ele>681.98</ele>
        <time>2022-04-10T11:35:28.000Z</time>
      </trkpt>
      <trkpt lat="43.7935" lon="6.42889">
        <ele>680.79</ele>
        <time>2022-04-10T11:35:39.000Z</time>
      </trkpt>
      <trkpt lat="43.79371" lon="6.42893">
        <ele>675.94</ele>
        <time>2022-04-10T11:35:44.000Z</time>
      </trkpt>
      <trkpt lat="43.79393" lon="6.42896">
        <ele>669.51</ele>
        <time>2022-04-10T11:35:49.000Z</time>
      </trkpt>
      <trkpt lat="43.79414" lon="6.42899">
        <ele>664.61</ele>
        <time>2022-04-10T11:35:54.000Z</time>
      </trkpt>
      <trkpt lat="43.79411" lon="6.42926">
        <ele>659.85</ele>
        <time>2022-04-10T11:36:06.000Z</time>
      </trkpt>
      <trkpt lat="43.79396" lon="6.42948">
        <ele>655.89</ele>
        <time>2022-04-10T11:36:11.000Z</time>
      </trkpt>
      <trkpt lat="43.79381" lon="6.42968">
        <ele>651.88</ele>
        <time>2022-04-10T11:36:15.000Z</time>
      </trkpt>
      <trkpt lat="43.79366" lon="6.42987">
        <ele>647.96</ele>
        <time>2022-04-10T11:36:19.000Z</time>
      </trkpt>
      <trkpt lat="43.79351" lon="6.43003">
        <ele>643.68</ele>
        <time>2022-04-10T11:36:23.000Z</time>
      </trkpt>
      <trkpt lat="43.79335" lon="6.43022">
        <ele>640.96</ele>
        <time>2022-04-10T11:36:28.000Z</time>
      </trkpt>
      <trkpt lat="43.79321" lon="6.43038">
        <ele>639.14</ele>
        <time>2022-04-10T11:36:33.000Z</time>
      </trkpt>
      <trkpt lat="43.79342" lon="6.43044">
        <ele>636.95</ele>
        <time>2022-04-10T11:36:49.000Z</time>
      </trkpt>
      <trkpt lat="43.79363" lon="6.43045">
        <ele>634.91</ele>
        <time>2022-04-10T11:36:54.000Z</time>
      </trkpt>
      <trkpt lat="43.79381" lon="6.43047">
        <ele>632.78</ele>
        <time>2022-04-10T11:36:58.000Z</time>
      </trkpt>
      <trkpt lat="43.794" lon="6.43049">
        <ele>631.39</ele>
        <time>2022-04-10T11:37:02.000Z</time>
      </trkpt>
      <trkpt lat="43.79419" lon="6.43051">
        <ele>628.69</ele>
        <time>2022-04-10T11:37:06.000Z</time>
      </trkpt>
      <trkpt lat="43.79411" lon="6.43077">
        <ele>623.81</ele>
        <time>2022-04-10T11:37:17.000Z</time>
      </trkpt>
      <trkpt lat="43.79396" lon="6.43095">
        <ele>620.37</ele>
        <time>2022-04-10T11:37:21.000Z</time>
      </trkpt>
      <trkpt lat="43.79382" lon="6.43111">
        <ele>617.22</ele>
        <time>2022-04-10T11:37:25.000Z</time>
      </trkpt>
      <trkpt lat="43.79363" lon="6.43127">
        <ele>613.68</ele>
        <time>2022-04-10T11:37:29.000Z</time>
      </trkpt>
      <trkpt lat="43.79346" lon="6.43144">
        <ele>610.27</ele>
        <time>2022-04-10T11:37:33.000Z</time>
      </trkpt>
      <trkpt lat="43.79331" lon="6.43162">
        <ele>606.93</ele>
        <time>2022-04-10T11:37:37.000Z</time>
      </trkpt>
      <trkpt lat="43.79314" lon="6.4318">
        <ele>604.89</ele>
        <time>2022-04-10T11:37:42.000Z</time>
      </trkpt>
      <trkpt lat="43.79297" lon="6.43195">
        <ele>603.39</ele>
        <time>2022-04-10T11:37:46.000Z</time>
      </trkpt>
      <trkpt lat="43.79284" lon="6.43213">
        <ele>600.27</ele>
        <time>2022-04-10T11:37:51.000Z</time>
      </trkpt>
      <trkpt lat="43.79267" lon="6.43228">
        <ele>597.71</ele>
        <time>2022-04-10T11:37:55.000Z</time>
      </trkpt>
      <trkpt lat="43.79254" lon="6.43252">
        <ele>594.07</ele>
        <time>2022-04-10T11:38:01.000Z</time>
      </trkpt>
      <trkpt lat="43.79239" lon="6.43268">
        <ele>590.18</ele>
        <time>2022-04-10T11:40:34.000Z</time>
      </trkpt>
      <trkpt lat="43.79224" lon="6.43254">
        <ele>588.51</ele>
        <time>2022-04-10T11:40:41.000Z</time>
      </trkpt>
      <trkpt lat="43.79219" lon="6.43229">
        <ele>585.61</ele>
        <time>2022-04-10T11:40:47.000Z</time>
      </trkpt>
      <trkpt lat="43.79202" lon="6.43216">
        <ele>585.4</ele>
        <time>2022-04-10T11:40:57.000Z</time>
      </trkpt>
      <trkpt lat="43.79184" lon="6.43215">
        <ele>586.69</ele>
        <time>2022-04-10T11:41:04.000Z</time>
      </trkpt>
      <trkpt lat="43.79165" lon="6.43214">
        <ele>586.13</ele>
        <time>2022-04-10T11:41:11.000Z</time>
      </trkpt>
      <trkpt lat="43.79158" lon="6.43239">
        <ele>590</ele>
        <time>2022-04-10T11:41:19.000Z</time>
      </trkpt>
      <trkpt lat="43.79146" lon="6.43259">
        <ele>591.59</ele>
        <time>2022-04-10T11:41:25.000Z</time>
      </trkpt>
      <trkpt lat="43.79131" lon="6.43275">
        <ele>592.93</ele>
        <time>2022-04-10T11:41:32.000Z</time>
      </trkpt>
      <trkpt lat="43.79115" lon="6.4329">
        <ele>593.07</ele>
        <time>2022-04-10T11:41:40.000Z</time>
      </trkpt>
      <trkpt lat="43.79102" lon="6.4331">
        <ele>594.24</ele>
        <time>2022-04-10T11:42:07.000Z</time>
      </trkpt>
      <trkpt lat="43.79084" lon="6.43319">
        <ele>596.37</ele>
        <time>2022-04-10T11:42:18.000Z</time>
      </trkpt>
      <trkpt lat="43.79067" lon="6.43329">
        <ele>595.82</ele>
        <time>2022-04-10T11:42:30.000Z</time>
      </trkpt>
      <trkpt lat="43.7905" lon="6.43338">
        <ele>596.77</ele>
        <time>2022-04-10T11:42:45.000Z</time>
      </trkpt>
      <trkpt lat="43.79031" lon="6.43332">
        <ele>598.73</ele>
        <time>2022-04-10T11:42:58.000Z</time>
      </trkpt>
      <trkpt lat="43.79012" lon="6.43335">
        <ele>600.42</ele>
        <time>2022-04-10T11:43:12.000Z</time>
      </trkpt>
      <trkpt lat="43.78993" lon="6.43337">
        <ele>604.09</ele>
        <time>2022-04-10T11:43:26.000Z</time>
      </trkpt>
      <trkpt lat="43.78975" lon="6.4334">
        <ele>606.6</ele>
        <time>2022-04-10T11:43:41.000Z</time>
      </trkpt>
      <trkpt lat="43.7895" lon="6.4335">
        <ele>613.28</ele>
        <time>2022-04-10T11:44:06.000Z</time>
      </trkpt>
      <trkpt lat="43.78932" lon="6.43359">
        <ele>617.65</ele>
        <time>2022-04-10T11:44:20.000Z</time>
      </trkpt>
      <trkpt lat="43.78915" lon="6.43371">
        <ele>620.2</ele>
        <time>2022-04-10T11:44:36.000Z</time>
      </trkpt>
      <trkpt lat="43.78898" lon="6.43381">
        <ele>620.12</ele>
        <time>2022-04-10T11:44:48.000Z</time>
      </trkpt>
      <trkpt lat="43.78884" lon="6.43397">
        <ele>618.28</ele>
        <time>2022-04-10T11:44:59.000Z</time>
      </trkpt>
      <trkpt lat="43.78866" lon="6.43409">
        <ele>619.29</ele>
        <time>2022-04-10T11:45:08.000Z</time>
      </trkpt>
      <trkpt lat="43.78847" lon="6.43417">
        <ele>617.47</ele>
        <time>2022-04-10T11:45:15.000Z</time>
      </trkpt>
      <trkpt lat="43.78829" lon="6.43421">
        <ele>616.61</ele>
        <time>2022-04-10T11:45:21.000Z</time>
      </trkpt>
      <trkpt lat="43.7881" lon="6.43429">
        <ele>616.68</ele>
        <time>2022-04-10T11:45:27.000Z</time>
      </trkpt>
      <trkpt lat="43.7879" lon="6.43438">
        <ele>616.98</ele>
        <time>2022-04-10T11:45:33.000Z</time>
      </trkpt>
      <trkpt lat="43.78772" lon="6.43447">
        <ele>617.05</ele>
        <time>2022-04-10T11:45:39.000Z</time>
      </trkpt>
      <trkpt lat="43.78754" lon="6.43459">
        <ele>616.88</ele>
        <time>2022-04-10T11:45:45.000Z</time>
      </trkpt>
      <trkpt lat="43.78734" lon="6.43471">
        <ele>618.22</ele>
        <time>2022-04-10T11:45:51.000Z</time>
      </trkpt>
      <trkpt lat="43.78715" lon="6.43485">
        <ele>619.9</ele>
        <time>2022-04-10T11:45:56.000Z</time>
      </trkpt>
      <trkpt lat="43.78694" lon="6.43489">
        <ele>619.35</ele>
        <time>2022-04-10T11:46:01.000Z</time>
      </trkpt>
      <trkpt lat="43.78677" lon="6.43493">
        <ele>617.18</ele>
        <time>2022-04-10T11:46:05.000Z</time>
      </trkpt>
      <trkpt lat="43.78657" lon="6.43502">
        <ele>615.99</ele>
        <time>2022-04-10T11:46:10.000Z</time>
      </trkpt>
      <trkpt lat="43.78639" lon="6.43508">
        <ele>615.16</ele>
        <time>2022-04-10T11:46:15.000Z</time>
      </trkpt>
      <trkpt lat="43.7862" lon="6.43512">
        <ele>614.24</ele>
        <time>2022-04-10T11:46:20.000Z</time>
      </trkpt>
      <trkpt lat="43.78602" lon="6.43517">
        <ele>614.75</ele>
        <time>2022-04-10T11:46:25.000Z</time>
      </trkpt>
      <trkpt lat="43.78584" lon="6.43525">
        <ele>614.89</ele>
        <time>2022-04-10T11:46:30.000Z</time>
      </trkpt>
      <trkpt lat="43.78566" lon="6.43534">
        <ele>614.77</ele>
        <time>2022-04-10T11:46:35.000Z</time>
      </trkpt>
      <trkpt lat="43.78548" lon="6.43542">
        <ele>613.96</ele>
        <time>2022-04-10T11:46:40.000Z</time>
      </trkpt>
      <trkpt lat="43.78528" lon="6.43549">
        <ele>613.58</ele>
        <time>2022-04-10T11:46:45.000Z</time>
      </trkpt>
      <trkpt lat="43.78508" lon="6.43558">
        <ele>616.19</ele>
        <time>2022-04-10T11:46:50.000Z</time>
      </trkpt>
      <trkpt lat="43.78488" lon="6.43567">
        <ele>617.8</ele>
        <time>2022-04-10T11:46:55.000Z</time>
      </trkpt>
      <trkpt lat="43.78469" lon="6.43577">
        <ele>617.92</ele>
        <time>2022-04-10T11:47:01.000Z</time>
      </trkpt>
      <trkpt lat="43.78451" lon="6.43583">
        <ele>616.74</ele>
        <time>2022-04-10T11:47:08.000Z</time>
      </trkpt>
      <trkpt lat="43.7843" lon="6.43585">
        <ele>616.73</ele>
        <time>2022-04-10T11:47:14.000Z</time>
      </trkpt>
      <trkpt lat="43.78411" lon="6.43589">
        <ele>617.5</ele>
        <time>2022-04-10T11:47:20.000Z</time>
      </trkpt>
      <trkpt lat="43.78391" lon="6.43593">
        <ele>618.67</ele>
        <time>2022-04-10T11:47:26.000Z</time>
      </trkpt>
      <trkpt lat="43.78373" lon="6.43594">
        <ele>620.24</ele>
        <time>2022-04-10T11:47:33.000Z</time>
      </trkpt>
      <trkpt lat="43.78355" lon="6.43591">
        <ele>620.49</ele>
        <time>2022-04-10T11:47:40.000Z</time>
      </trkpt>
      <trkpt lat="43.78337" lon="6.43596">
        <ele>621.01</ele>
        <time>2022-04-10T11:47:47.000Z</time>
      </trkpt>
      <trkpt lat="43.78319" lon="6.43603">
        <ele>623.67</ele>
        <time>2022-04-10T11:47:55.000Z</time>
      </trkpt>
      <trkpt lat="43.78301" lon="6.43616">
        <ele>626.02</ele>
        <time>2022-04-10T11:48:03.000Z</time>
      </trkpt>
      <trkpt lat="43.78283" lon="6.43622">
        <ele>625.73</ele>
        <time>2022-04-10T11:48:10.000Z</time>
      </trkpt>
      <trkpt lat="43.78264" lon="6.43625">
        <ele>627.56</ele>
        <time>2022-04-10T11:48:18.000Z</time>
      </trkpt>
      <trkpt lat="43.78245" lon="6.43627">
        <ele>628.48</ele>
        <time>2022-04-10T11:48:25.000Z</time>
      </trkpt>
      <trkpt lat="43.78225" lon="6.43631">
        <ele>629.14</ele>
        <time>2022-04-10T11:48:31.000Z</time>
      </trkpt>
      <trkpt lat="43.78207" lon="6.43641">
        <ele>631.7</ele>
        <time>2022-04-10T11:48:38.000Z</time>
      </trkpt>
      <trkpt lat="43.78191" lon="6.43655">
        <ele>632.36</ele>
        <time>2022-04-10T11:48:44.000Z</time>
      </trkpt>
      <trkpt lat="43.78176" lon="6.43672">
        <ele>632.1</ele>
        <time>2022-04-10T11:48:50.000Z</time>
      </trkpt>
      <trkpt lat="43.78159" lon="6.43689">
        <ele>630.87</ele>
        <time>2022-04-10T11:48:59.000Z</time>
      </trkpt>
      <trkpt lat="43.78141" lon="6.437">
        <ele>629.11</ele>
        <time>2022-04-10T11:49:06.000Z</time>
      </trkpt>
      <trkpt lat="43.78122" lon="6.43705">
        <ele>628.4</ele>
        <time>2022-04-10T11:49:11.000Z</time>
      </trkpt>
      <trkpt lat="43.78101" lon="6.43709">
        <ele>627.75</ele>
        <time>2022-04-10T11:49:16.000Z</time>
      </trkpt>
      <trkpt lat="43.78082" lon="6.43717">
        <ele>627.22</ele>
        <time>2022-04-10T11:49:22.000Z</time>
      </trkpt>
      <trkpt lat="43.78061" lon="6.43724">
        <ele>627.26</ele>
        <time>2022-04-10T11:49:29.000Z</time>
      </trkpt>
      <trkpt lat="43.78041" lon="6.43729">
        <ele>627.33</ele>
        <time>2022-04-10T11:49:35.000Z</time>
      </trkpt>
      <trkpt lat="43.78021" lon="6.43733">
        <ele>627.32</ele>
        <time>2022-04-10T11:49:42.000Z</time>
      </trkpt>
      <trkpt lat="43.78003" lon="6.43737">
        <ele>628.62</ele>
        <time>2022-04-10T11:49:49.000Z</time>
      </trkpt>
      <trkpt lat="43.77983" lon="6.43741">
        <ele>630.74</ele>
        <time>2022-04-10T11:49:57.000Z</time>
      </trkpt>
      <trkpt lat="43.77964" lon="6.43741">
        <ele>632.64</ele>
        <time>2022-04-10T11:50:06.000Z</time>
      </trkpt>
      <trkpt lat="43.77947" lon="6.4375">
        <ele>632.3</ele>
        <time>2022-04-10T11:50:15.000Z</time>
      </trkpt>
      <trkpt lat="43.77929" lon="6.4375">
        <ele>632.46</ele>
        <time>2022-04-10T11:50:24.000Z</time>
      </trkpt>
      <trkpt lat="43.77911" lon="6.43738">
        <ele>632.17</ele>
        <time>2022-04-10T11:50:34.000Z</time>
      </trkpt>
      <trkpt lat="43.77895" lon="6.43727">
        <ele>628.68</ele>
        <time>2022-04-10T11:50:42.000Z</time>
      </trkpt>
      <trkpt lat="43.77879" lon="6.43744">
        <ele>631.37</ele>
        <time>2022-04-10T11:50:51.000Z</time>
      </trkpt>
      <trkpt lat="43.77867" lon="6.43763">
        <ele>634.83</ele>
        <time>2022-04-10T11:50:58.000Z</time>
      </trkpt>
      <trkpt lat="43.7785" lon="6.43774">
        <ele>638.11</ele>
        <time>2022-04-10T11:51:08.000Z</time>
      </trkpt>
      <trkpt lat="43.77833" lon="6.43784">
        <ele>637.43</ele>
        <time>2022-04-10T11:51:16.000Z</time>
      </trkpt>
      <trkpt lat="43.77815" lon="6.43792">
        <ele>636.14</ele>
        <time>2022-04-10T11:51:24.000Z</time>
      </trkpt>
      <trkpt lat="43.77797" lon="6.43798">
        <ele>635.85</ele>
        <time>2022-04-10T11:51:33.000Z</time>
      </trkpt>
      <trkpt lat="43.77778" lon="6.43804">
        <ele>637.91</ele>
        <time>2022-04-10T11:51:42.000Z</time>
      </trkpt>
      <trkpt lat="43.77759" lon="6.43813">
        <ele>639.99</ele>
        <time>2022-04-10T11:51:51.000Z</time>
      </trkpt>
      <trkpt lat="43.77742" lon="6.43821">
        <ele>642.91</ele>
        <time>2022-04-10T11:52:00.000Z</time>
      </trkpt>
      <trkpt lat="43.77725" lon="6.43829">
        <ele>645.1</ele>
        <time>2022-04-10T11:52:09.000Z</time>
      </trkpt>
      <trkpt lat="43.77707" lon="6.43836">
        <ele>645.35</ele>
        <time>2022-04-10T11:52:19.000Z</time>
      </trkpt>
      <trkpt lat="43.77689" lon="6.43845">
        <ele>643.71</ele>
        <time>2022-04-10T11:52:28.000Z</time>
      </trkpt>
      <trkpt lat="43.7767" lon="6.43852">
        <ele>643.79</ele>
        <time>2022-04-10T11:52:37.000Z</time>
      </trkpt>
      <trkpt lat="43.77652" lon="6.43859">
        <ele>643.44</ele>
        <time>2022-04-10T11:52:45.000Z</time>
      </trkpt>
      <trkpt lat="43.77633" lon="6.43863">
        <ele>643.63</ele>
        <time>2022-04-10T11:52:54.000Z</time>
      </trkpt>
      <trkpt lat="43.77615" lon="6.43869">
        <ele>645.41</ele>
        <time>2022-04-10T11:53:03.000Z</time>
      </trkpt>
      <trkpt lat="43.77597" lon="6.43874">
        <ele>646.72</ele>
        <time>2022-04-10T11:53:11.000Z</time>
      </trkpt>
      <trkpt lat="43.77579" lon="6.4388">
        <ele>647.79</ele>
        <time>2022-04-10T11:53:19.000Z</time>
      </trkpt>
      <trkpt lat="43.77561" lon="6.43887">
        <ele>648.52</ele>
        <time>2022-04-10T11:53:27.000Z</time>
      </trkpt>
      <trkpt lat="43.77543" lon="6.43894">
        <ele>650.26</ele>
        <time>2022-04-10T11:53:35.000Z</time>
      </trkpt>
      <trkpt lat="43.77524" lon="6.43902">
        <ele>651.17</ele>
        <time>2022-04-10T11:53:43.000Z</time>
      </trkpt>
      <trkpt lat="43.77507" lon="6.4391">
        <ele>653.02</ele>
        <time>2022-04-10T11:53:50.000Z</time>
      </trkpt>
      <trkpt lat="43.77488" lon="6.43918">
        <ele>652.5</ele>
        <time>2022-04-10T11:53:57.000Z</time>
      </trkpt>
      <trkpt lat="43.7747" lon="6.43927">
        <ele>652.68</ele>
        <time>2022-04-10T11:54:05.000Z</time>
      </trkpt>
      <trkpt lat="43.77452" lon="6.43933">
        <ele>653.01</ele>
        <time>2022-04-10T11:54:16.000Z</time>
      </trkpt>
      <trkpt lat="43.77434" lon="6.43931">
        <ele>654.94</ele>
        <time>2022-04-10T11:54:33.000Z</time>
      </trkpt>
      <trkpt lat="43.77416" lon="6.43931">
        <ele>658.58</ele>
        <time>2022-04-10T11:54:47.000Z</time>
      </trkpt>
      <trkpt lat="43.77397" lon="6.43929">
        <ele>660.28</ele>
        <time>2022-04-10T11:55:02.000Z</time>
      </trkpt>
      <trkpt lat="43.77379" lon="6.43928">
        <ele>660.02</ele>
        <time>2022-04-10T11:55:14.000Z</time>
      </trkpt>
      <trkpt lat="43.7736" lon="6.43921">
        <ele>660.67</ele>
        <time>2022-04-10T11:55:24.000Z</time>
      </trkpt>
      <trkpt lat="43.77342" lon="6.43915">
        <ele>662.11</ele>
        <time>2022-04-10T11:55:35.000Z</time>
      </trkpt>
      <trkpt lat="43.77324" lon="6.43908">
        <ele>662.41</ele>
        <time>2022-04-10T11:55:45.000Z</time>
      </trkpt>
      <trkpt lat="43.77305" lon="6.43905">
        <ele>662.25</ele>
        <time>2022-04-10T11:55:54.000Z</time>
      </trkpt>
      <trkpt lat="43.77286" lon="6.43913">
        <ele>660.56</ele>
        <time>2022-04-10T11:56:02.000Z</time>
      </trkpt>
      <trkpt lat="43.77269" lon="6.4392">
        <ele>660.81</ele>
        <time>2022-04-10T11:56:10.000Z</time>
      </trkpt>
      <trkpt lat="43.77251" lon="6.43926">
        <ele>660.98</ele>
        <time>2022-04-10T11:56:18.000Z</time>
      </trkpt>
      <trkpt lat="43.77234" lon="6.43937">
        <ele>664.76</ele>
        <time>2022-04-10T11:56:27.000Z</time>
      </trkpt>
      <trkpt lat="43.77214" lon="6.4394">
        <ele>669.04</ele>
        <time>2022-04-10T11:56:35.000Z</time>
      </trkpt>
      <trkpt lat="43.77196" lon="6.43942">
        <ele>671.26</ele>
        <time>2022-04-10T11:56:42.000Z</time>
      </trkpt>
      <trkpt lat="43.77178" lon="6.43939">
        <ele>672.38</ele>
        <time>2022-04-10T11:56:49.000Z</time>
      </trkpt>
      <trkpt lat="43.7716" lon="6.43934">
        <ele>673.78</ele>
        <time>2022-04-10T11:56:56.000Z</time>
      </trkpt>
      <trkpt lat="43.77141" lon="6.43931">
        <ele>674.46</ele>
        <time>2022-04-10T11:57:03.000Z</time>
      </trkpt>
      <trkpt lat="43.77123" lon="6.43931">
        <ele>675.48</ele>
        <time>2022-04-10T12:02:14.000Z</time>
      </trkpt>
      <trkpt lat="43.77103" lon="6.43933">
        <ele>677.48</ele>
        <time>2022-04-10T12:02:25.000Z</time>
      </trkpt>
      <trkpt lat="43.77085" lon="6.43933">
        <ele>679.24</ele>
        <time>2022-04-10T12:02:36.000Z</time>
      </trkpt>
      <trkpt lat="43.77067" lon="6.43936">
        <ele>680.44</ele>
        <time>2022-04-10T12:02:48.000Z</time>
      </trkpt>
      <trkpt lat="43.77047" lon="6.4394">
        <ele>681.62</ele>
        <time>2022-04-10T12:03:01.000Z</time>
      </trkpt>
      <trkpt lat="43.77029" lon="6.43942">
        <ele>684.36</ele>
        <time>2022-04-10T12:03:14.000Z</time>
      </trkpt>
      <trkpt lat="43.77012" lon="6.43951">
        <ele>686.12</ele>
        <time>2022-04-10T12:03:26.000Z</time>
      </trkpt>
      <trkpt lat="43.76995" lon="6.43962">
        <ele>687.54</ele>
        <time>2022-04-10T12:03:38.000Z</time>
      </trkpt>
      <trkpt lat="43.76978" lon="6.43972">
        <ele>687.77</ele>
        <time>2022-04-10T12:03:50.000Z</time>
      </trkpt>
      <trkpt lat="43.76961" lon="6.43981">
        <ele>687.79</ele>
        <time>2022-04-10T12:04:00.000Z</time>
      </trkpt>
      <trkpt lat="43.76943" lon="6.4399">
        <ele>688.93</ele>
        <time>2022-04-10T12:04:09.000Z</time>
      </trkpt>
      <trkpt lat="43.76926" lon="6.43999">
        <ele>690.64</ele>
        <time>2022-04-10T12:04:17.000Z</time>
      </trkpt>
      <trkpt lat="43.76911" lon="6.44013">
        <ele>695.01</ele>
        <time>2022-04-10T12:04:25.000Z</time>
      </trkpt>
      <trkpt lat="43.76892" lon="6.44025">
        <ele>698.22</ele>
        <time>2022-04-10T12:04:35.000Z</time>
      </trkpt>
      <trkpt lat="43.76875" lon="6.44035">
        <ele>698.05</ele>
        <time>2022-04-10T12:04:44.000Z</time>
      </trkpt>
      <trkpt lat="43.76858" lon="6.44046">
        <ele>697.88</ele>
        <time>2022-04-10T12:04:52.000Z</time>
      </trkpt>
      <trkpt lat="43.76841" lon="6.44055">
        <ele>696.9</ele>
        <time>2022-04-10T12:04:59.000Z</time>
      </trkpt>
      <trkpt lat="43.76822" lon="6.44063">
        <ele>697.9</ele>
        <time>2022-04-10T12:05:07.000Z</time>
      </trkpt>
      <trkpt lat="43.76803" lon="6.44069">
        <ele>698.85</ele>
        <time>2022-04-10T12:05:15.000Z</time>
      </trkpt>
      <trkpt lat="43.76786" lon="6.44081">
        <ele>699.8</ele>
        <time>2022-04-10T12:05:23.000Z</time>
      </trkpt>
      <trkpt lat="43.7677" lon="6.44093">
        <ele>700.11</ele>
        <time>2022-04-10T12:05:32.000Z</time>
      </trkpt>
      <trkpt lat="43.76756" lon="6.44109">
        <ele>700.14</ele>
        <time>2022-04-10T12:05:45.000Z</time>
      </trkpt>
      <trkpt lat="43.76742" lon="6.44126">
        <ele>699.34</ele>
        <time>2022-04-10T12:06:48.000Z</time>
      </trkpt>
      <trkpt lat="43.76728" lon="6.44143">
        <ele>701.36</ele>
        <time>2022-04-10T12:07:01.000Z</time>
      </trkpt>
      <trkpt lat="43.76715" lon="6.44162">
        <ele>703.68</ele>
        <time>2022-04-10T12:07:12.000Z</time>
      </trkpt>
      <trkpt lat="43.76701" lon="6.44179">
        <ele>704.52</ele>
        <time>2022-04-10T12:07:22.000Z</time>
      </trkpt>
      <trkpt lat="43.76688" lon="6.44199">
        <ele>707.67</ele>
        <time>2022-04-10T12:07:31.000Z</time>
      </trkpt>
      <trkpt lat="43.76679" lon="6.4422">
        <ele>708.6</ele>
        <time>2022-04-10T12:07:38.000Z</time>
      </trkpt>
      <trkpt lat="43.7667" lon="6.44242">
        <ele>709.41</ele>
        <time>2022-04-10T12:07:45.000Z</time>
      </trkpt>
      <trkpt lat="43.76655" lon="6.4426">
        <ele>707.32</ele>
        <time>2022-04-10T12:07:53.000Z</time>
      </trkpt>
      <trkpt lat="43.7664" lon="6.44278">
        <ele>708.29</ele>
        <time>2022-04-10T12:08:01.000Z</time>
      </trkpt>
      <trkpt lat="43.76626" lon="6.44296">
        <ele>709.57</ele>
        <time>2022-04-10T12:08:09.000Z</time>
      </trkpt>
      <trkpt lat="43.76614" lon="6.44319">
        <ele>711.89</ele>
        <time>2022-04-10T12:08:17.000Z</time>
      </trkpt>
      <trkpt lat="43.76606" lon="6.44342">
        <ele>711.32</ele>
        <time>2022-04-10T12:08:23.000Z</time>
      </trkpt>
      <trkpt lat="43.76603" lon="6.4437">
        <ele>709.19</ele>
        <time>2022-04-10T12:08:28.000Z</time>
      </trkpt>
      <trkpt lat="43.76601" lon="6.44397">
        <ele>707.98</ele>
        <time>2022-04-10T12:08:32.000Z</time>
      </trkpt>
      <trkpt lat="43.76593" lon="6.44422">
        <ele>704.36</ele>
        <time>2022-04-10T12:08:48.000Z</time>
      </trkpt>
      <trkpt lat="43.76588" lon="6.44451">
        <ele>702.51</ele>
        <time>2022-04-10T12:08:54.000Z</time>
      </trkpt>
      <trkpt lat="43.76582" lon="6.44476">
        <ele>700.31</ele>
        <time>2022-04-10T12:08:58.000Z</time>
      </trkpt>
      <trkpt lat="43.76575" lon="6.445">
        <ele>697.37</ele>
        <time>2022-04-10T12:09:02.000Z</time>
      </trkpt>
      <trkpt lat="43.76564" lon="6.44522">
        <ele>695.21</ele>
        <time>2022-04-10T12:09:05.000Z</time>
      </trkpt>
      <trkpt lat="43.76549" lon="6.44547">
        <ele>692.66</ele>
        <time>2022-04-10T12:09:08.000Z</time>
      </trkpt>
      <trkpt lat="43.76537" lon="6.44581">
        <ele>690</ele>
        <time>2022-04-10T12:09:11.000Z</time>
      </trkpt>
      <trkpt lat="43.7653" lon="6.44606">
        <ele>687.48</ele>
        <time>2022-04-10T12:09:13.000Z</time>
      </trkpt>
      <trkpt lat="43.7652" lon="6.44633">
        <ele>684.49</ele>
        <time>2022-04-10T12:09:15.000Z</time>
      </trkpt>
      <trkpt lat="43.76504" lon="6.44656">
        <ele>680.99</ele>
        <time>2022-04-10T12:09:17.000Z</time>
      </trkpt>
      <trkpt lat="43.76482" lon="6.44673">
        <ele>677.63</ele>
        <time>2022-04-10T12:09:19.000Z</time>
      </trkpt>
      <trkpt lat="43.76464" lon="6.44687">
        <ele>675.88</ele>
        <time>2022-04-10T12:09:21.000Z</time>
      </trkpt>
      <trkpt lat="43.7645" lon="6.44703">
        <ele>673.88</ele>
        <time>2022-04-10T12:09:23.000Z</time>
      </trkpt>
      <trkpt lat="43.76438" lon="6.44724">
        <ele>671.99</ele>
        <time>2022-04-10T12:09:25.000Z</time>
      </trkpt>
      <trkpt lat="43.76424" lon="6.44742">
        <ele>670.01</ele>
        <time>2022-04-10T12:09:27.000Z</time>
      </trkpt>
      <trkpt lat="43.76406" lon="6.44756">
        <ele>668.28</ele>
        <time>2022-04-10T12:09:29.000Z</time>
      </trkpt>
      <trkpt lat="43.76389" lon="6.44771">
        <ele>666.51</ele>
        <time>2022-04-10T12:09:31.000Z</time>
      </trkpt>
      <trkpt lat="43.76374" lon="6.4479">
        <ele>664.62</ele>
        <time>2022-04-10T12:09:33.000Z</time>
      </trkpt>
      <trkpt lat="43.7636" lon="6.44809">
        <ele>662.33</ele>
        <time>2022-04-10T12:09:35.000Z</time>
      </trkpt>
      <trkpt lat="43.76341" lon="6.4483">
        <ele>659.06</ele>
        <time>2022-04-10T12:09:38.000Z</time>
      </trkpt>
      <trkpt lat="43.76324" lon="6.44841">
        <ele>656.98</ele>
        <time>2022-04-10T12:09:41.000Z</time>
      </trkpt>
      <trkpt lat="43.76306" lon="6.44837">
        <ele>655.01</ele>
        <time>2022-04-10T12:09:47.000Z</time>
      </trkpt>
      <trkpt lat="43.76287" lon="6.44832">
        <ele>654.98</ele>
        <time>2022-04-10T12:09:52.000Z</time>
      </trkpt>
      <trkpt lat="43.76269" lon="6.44826">
        <ele>655.8</ele>
        <time>2022-04-10T12:09:57.000Z</time>
      </trkpt>
      <trkpt lat="43.76249" lon="6.44818">
        <ele>656.91</ele>
        <time>2022-04-10T12:10:04.000Z</time>
      </trkpt>
      <trkpt lat="43.76228" lon="6.4481">
        <ele>657.4</ele>
        <time>2022-04-10T12:10:11.000Z</time>
      </trkpt>
      <trkpt lat="43.7621" lon="6.44803">
        <ele>658.98</ele>
        <time>2022-04-10T12:10:18.000Z</time>
      </trkpt>
      <trkpt lat="43.7619" lon="6.44798">
        <ele>659.38</ele>
        <time>2022-04-10T12:10:25.000Z</time>
      </trkpt>
      <trkpt lat="43.76171" lon="6.44797">
        <ele>659.35</ele>
        <time>2022-04-10T12:10:31.000Z</time>
      </trkpt>
      <trkpt lat="43.76151" lon="6.44802">
        <ele>660.34</ele>
        <time>2022-04-10T12:10:38.000Z</time>
      </trkpt>
      <trkpt lat="43.76131" lon="6.44808">
        <ele>660.39</ele>
        <time>2022-04-10T12:10:45.000Z</time>
      </trkpt>
      <trkpt lat="43.76111" lon="6.44812">
        <ele>661.81</ele>
        <time>2022-04-10T12:10:52.000Z</time>
      </trkpt>
      <trkpt lat="43.76092" lon="6.44811">
        <ele>661.88</ele>
        <time>2022-04-10T12:10:59.000Z</time>
      </trkpt>
      <trkpt lat="43.76071" lon="6.44807">
        <ele>663.61</ele>
        <time>2022-04-10T12:11:06.000Z</time>
      </trkpt>
      <trkpt lat="43.76054" lon="6.44799">
        <ele>663.37</ele>
        <time>2022-04-10T12:11:13.000Z</time>
      </trkpt>
      <trkpt lat="43.76039" lon="6.44785">
        <ele>665.74</ele>
        <time>2022-04-10T12:11:20.000Z</time>
      </trkpt>
      <trkpt lat="43.76024" lon="6.44766">
        <ele>667.48</ele>
        <time>2022-04-10T12:11:28.000Z</time>
      </trkpt>
      <trkpt lat="43.76011" lon="6.44747">
        <ele>668.27</ele>
        <time>2022-04-10T12:11:36.000Z</time>
      </trkpt>
      <trkpt lat="43.75999" lon="6.44725">
        <ele>668.75</ele>
        <time>2022-04-10T12:11:44.000Z</time>
      </trkpt>
      <trkpt lat="43.75987" lon="6.44706">
        <ele>668.66</ele>
        <time>2022-04-10T12:11:51.000Z</time>
      </trkpt>
      <trkpt lat="43.75975" lon="6.44686">
        <ele>670.02</ele>
        <time>2022-04-10T12:11:59.000Z</time>
      </trkpt>
      <trkpt lat="43.75964" lon="6.44664">
        <ele>670.85</ele>
        <time>2022-04-10T12:12:05.000Z</time>
      </trkpt>
      <trkpt lat="43.75956" lon="6.44639">
        <ele>672.32</ele>
        <time>2022-04-10T12:12:11.000Z</time>
      </trkpt>
      <trkpt lat="43.75955" lon="6.44613">
        <ele>674.14</ele>
        <time>2022-04-10T12:12:17.000Z</time>
      </trkpt>
      <trkpt lat="43.75955" lon="6.44586">
        <ele>676.38</ele>
        <time>2022-04-10T12:12:23.000Z</time>
      </trkpt>
      <trkpt lat="43.75958" lon="6.4456">
        <ele>678.11</ele>
        <time>2022-04-10T12:12:29.000Z</time>
      </trkpt>
      <trkpt lat="43.75961" lon="6.44533">
        <ele>679.12</ele>
        <time>2022-04-10T12:12:38.000Z</time>
      </trkpt>
      <trkpt lat="43.75962" lon="6.44507">
        <ele>680.33</ele>
        <time>2022-04-10T12:12:48.000Z</time>
      </trkpt>
      <trkpt lat="43.75963" lon="6.4448">
        <ele>682.48</ele>
        <time>2022-04-10T12:12:59.000Z</time>
      </trkpt>
      <trkpt lat="43.75966" lon="6.44454">
        <ele>685.56</ele>
        <time>2022-04-10T12:13:09.000Z</time>
      </trkpt>
      <trkpt lat="43.75969" lon="6.44429">
        <ele>686.53</ele>
        <time>2022-04-10T12:13:20.000Z</time>
      </trkpt>
      <trkpt lat="43.75971" lon="6.44403">
        <ele>687.22</ele>
        <time>2022-04-10T12:13:50.000Z</time>
      </trkpt>
      <trkpt lat="43.75956" lon="6.44416">
        <ele>687.9</ele>
        <time>2022-04-10T12:14:03.000Z</time>
      </trkpt>
      <trkpt lat="43.75949" lon="6.44439">
        <ele>687.77</ele>
        <time>2022-04-10T12:14:11.000Z</time>
      </trkpt>
      <trkpt lat="43.75934" lon="6.44454">
        <ele>687.51</ele>
        <time>2022-04-10T12:14:18.000Z</time>
      </trkpt>
      <trkpt lat="43.75917" lon="6.44464">
        <ele>688.29</ele>
        <time>2022-04-10T12:14:25.000Z</time>
      </trkpt>
      <trkpt lat="43.75899" lon="6.44477">
        <ele>690.02</ele>
        <time>2022-04-10T12:14:33.000Z</time>
      </trkpt>
      <trkpt lat="43.75883" lon="6.44491">
        <ele>692.62</ele>
        <time>2022-04-10T12:14:41.000Z</time>
      </trkpt>
      <trkpt lat="43.75866" lon="6.44504">
        <ele>693.99</ele>
        <time>2022-04-10T12:14:49.000Z</time>
      </trkpt>
      <trkpt lat="43.75848" lon="6.44512">
        <ele>693.84</ele>
        <time>2022-04-10T12:14:56.000Z</time>
      </trkpt>
      <trkpt lat="43.75854" lon="6.44487">
        <ele>696.2</ele>
        <time>2022-04-10T12:15:04.000Z</time>
      </trkpt>
      <trkpt lat="43.75864" lon="6.44462">
        <ele>696.36</ele>
        <time>2022-04-10T12:15:11.000Z</time>
      </trkpt>
      <trkpt lat="43.75871" lon="6.44439">
        <ele>698.16</ele>
        <time>2022-04-10T12:15:18.000Z</time>
      </trkpt>
      <trkpt lat="43.75878" lon="6.44414">
        <ele>699.32</ele>
        <time>2022-04-10T12:15:26.000Z</time>
      </trkpt>
      <trkpt lat="43.75885" lon="6.4439">
        <ele>701.41</ele>
        <time>2022-04-10T12:15:34.000Z</time>
      </trkpt>
      <trkpt lat="43.75892" lon="6.44364">
        <ele>703.43</ele>
        <time>2022-04-10T12:15:43.000Z</time>
      </trkpt>
      <trkpt lat="43.75897" lon="6.4434">
        <ele>704.74</ele>
        <time>2022-04-10T12:15:52.000Z</time>
      </trkpt>
      <trkpt lat="43.759" lon="6.44314">
        <ele>707.77</ele>
        <time>2022-04-10T12:16:01.000Z</time>
      </trkpt>
      <trkpt lat="43.75902" lon="6.44288">
        <ele>708.35</ele>
        <time>2022-04-10T12:16:10.000Z</time>
      </trkpt>
      <trkpt lat="43.75906" lon="6.4426">
        <ele>710.18</ele>
        <time>2022-04-10T12:16:19.000Z</time>
      </trkpt>
      <trkpt lat="43.75913" lon="6.44236">
        <ele>711.51</ele>
        <time>2022-04-10T12:16:27.000Z</time>
      </trkpt>
      <trkpt lat="43.75927" lon="6.44216">
        <ele>712.03</ele>
        <time>2022-04-10T12:16:35.000Z</time>
      </trkpt>
      <trkpt lat="43.75945" lon="6.44209">
        <ele>715.23</ele>
        <time>2022-04-10T12:16:43.000Z</time>
      </trkpt>
      <trkpt lat="43.75963" lon="6.44201">
        <ele>717.09</ele>
        <time>2022-04-10T12:16:52.000Z</time>
      </trkpt>
      <trkpt lat="43.75977" lon="6.44186">
        <ele>717.07</ele>
        <time>2022-04-10T12:17:00.000Z</time>
      </trkpt>
      <trkpt lat="43.75994" lon="6.44171">
        <ele>719.15</ele>
        <time>2022-04-10T12:17:08.000Z</time>
      </trkpt>
      <trkpt lat="43.76014" lon="6.44171">
        <ele>722.35</ele>
        <time>2022-04-10T12:17:18.000Z</time>
      </trkpt>
      <trkpt lat="43.76033" lon="6.44179">
        <ele>721.99</ele>
        <time>2022-04-10T12:17:28.000Z</time>
      </trkpt>
      <trkpt lat="43.76041" lon="6.44201">
        <ele>725.44</ele>
        <time>2022-04-10T12:17:36.000Z</time>
      </trkpt>
      <trkpt lat="43.76048" lon="6.44225">
        <ele>732.85</ele>
        <time>2022-04-10T12:27:37.000Z</time>
      </trkpt>
      <trkpt lat="43.76024" lon="6.44134">
        <ele>775</ele>
      </trkpt>
      <trkpt lat="43.7599" lon="6.44078">
        <ele>780.6</ele>
      </trkpt>
      <trkpt lat="43.76025" lon="6.44067">
        <ele>783.1</ele>
      </trkpt>
      <trkpt lat="43.76103" lon="6.44151">
        <ele>792.1</ele>
      </trkpt>
      <trkpt lat="43.76152" lon="6.44321">
        <ele>802</ele>
      </trkpt>
      <trkpt lat="43.76172" lon="6.44241">
        <ele>806.6</ele>
      </trkpt>
      <trkpt lat="43.76158" lon="6.44143">
        <ele>806.4</ele>
      </trkpt>
      <trkpt lat="43.76165" lon="6.44005">
        <ele>814.4</ele>
      </trkpt>
      <trkpt lat="43.76157" lon="6.43984">
        <ele>815.2</ele>
      </trkpt>
      <trkpt lat="43.76126" lon="6.43885">
        <ele>820.3</ele>
      </trkpt>
      <trkpt lat="43.76103" lon="6.43797">
        <ele>828.1</ele>
      </trkpt>
      <trkpt lat="43.76033" lon="6.4381">
        <ele>823.7</ele>
      </trkpt>
      <trkpt lat="43.75997" lon="6.43763">
        <ele>826.6</ele>
      </trkpt>
      <trkpt lat="43.76028" lon="6.43722">
        <ele>831.1</ele>
      </trkpt>
      <trkpt lat="43.76039" lon="6.43655">
        <ele>838.7</ele>
      </trkpt>
      <trkpt lat="43.76013" lon="6.43647">
        <ele>838.4</ele>
      </trkpt>
      <trkpt lat="43.75986" lon="6.43681">
        <ele>835.7</ele>
      </trkpt>
      <trkpt lat="43.75957" lon="6.43662">
        <ele>835</ele>
      </trkpt>
      <trkpt lat="43.7594" lon="6.43677">
        <ele>834.7</ele>
      </trkpt>
      <trkpt lat="43.75924" lon="6.43649">
        <ele>830.3</ele>
      </trkpt>
      <trkpt lat="43.75876" lon="6.43619">
        <ele>817.3</ele>
      </trkpt>
      <trkpt lat="43.75816" lon="6.43555">
        <ele>794.6</ele>
      </trkpt>
      <trkpt lat="43.75777" lon="6.4352">
        <ele>789.1</ele>
      </trkpt>
      <trkpt lat="43.75686" lon="6.43516">
        <ele>786.7</ele>
      </trkpt>
      <trkpt lat="43.75644" lon="6.43552">
        <ele>780.4</ele>
      </trkpt>
      <trkpt lat="43.75605" lon="6.43552">
        <ele>778.3</ele>
      </trkpt>
      <trkpt lat="43.75597" lon="6.43559">
        <ele>778.4</ele>
      </trkpt>
      <trkpt lat="43.75576" lon="6.4352">
        <ele>779.7</ele>
      </trkpt>
      <trkpt lat="43.75574" lon="6.43454">
        <ele>781.1</ele>
      </trkpt>
      <trkpt lat="43.75562" lon="6.43411">
        <ele>781.7</ele>
      </trkpt>
      <trkpt lat="43.75552" lon="6.43349">
        <ele>783.1</ele>
        <time>2022-04-10T07:27:25.000Z</time>
      </trkpt>
    </trkseg>
  </trk>
</gpx>